Wetterdaten: Montag, 15.07.2019
Datum Zeit Temp. Aussen Temp. o. S. +5cm Feuchte Auss Luftdruck Regen Sonnenschein Regendauer Solar Windben Empfang
15.07.2019 00:00 16,2 C 15,0 C 15,0 C 81 % 1020,0 hPa 0,0 l/m 0 min 0 min 0 W/m 6,4 km/h (2 Bft) 100,00 %
15.07.2019 00:02 16,2 C 15,0 C 15,0 C 81 % 1020,1 hPa 0,0 l/m 0 min 0 min 0 W/m 3,2 km/h (1 Bft) 95,35 %
15.07.2019 00:04 16,2 C 15,0 C 15,0 C 81 % 1020,0 hPa 0,0 l/m 0 min 0 min 0 W/m 6,4 km/h (2 Bft) 95,74 %
15.07.2019 00:08 16,1 C 15,0 C 15,0 C 81 % 1020,0 hPa 0,0 l/m 0 min 0 min 0 W/m 12,9 km/h (3 Bft) 97,87 %
15.07.2019 00:10 16,1 C 15,0 C 15,0 C 81 % 1020,0 hPa 0,0 l/m 0 min 0 min 0 W/m 16,1 km/h (3 Bft) 97,83 %
15.07.2019 00:12 16,1 C 15,0 C 15,0 C 80 % 1020,0 hPa 0,0 l/m 0 min 0 min 0 W/m 9,7 km/h (2 Bft) 97,87 %
15.07.2019 00:14 16,1 C 15,0 C 15,0 C 80 % 1020,0 hPa 0,0 l/m 0 min 0 min 0 W/m 9,7 km/h (2 Bft) 97,87 %
15.07.2019 00:16 16,0 C 15,0 C 15,0 C 80 % 1020,0 hPa 0,0 l/m 0 min 0 min 0 W/m 6,4 km/h (2 Bft) 97,87 %
15.07.2019 00:18 16,0 C 15,0 C 15,0 C 80 % 1020,1 hPa 0,0 l/m 0 min 0 min 0 W/m 12,9 km/h (3 Bft) 97,87 %
15.07.2019 00:20 15,9 C 15,0 C 15,0 C 80 % 1020,1 hPa 0,0 l/m 0 min 0 min 0 W/m 12,9 km/h (3 Bft) 97,87 %
15.07.2019 00:22 15,9 C 15,0 C 14,4 C 80 % 1020,0 hPa 0,0 l/m 0 min 0 min 0 W/m 6,4 km/h (2 Bft) 97,83 %
15.07.2019 00:24 15,9 C 15,0 C 14,4 C 80 % 1020,0 hPa 0,0 l/m 0 min 0 min 0 W/m 12,9 km/h (3 Bft) 97,87 %
15.07.2019 00:26 15,9 C 15,0 C 14,4 C 80 % 1020,0 hPa 0,0 l/m 0 min 0 min 0 W/m 12,9 km/h (3 Bft) 95,74 %
15.07.2019 00:28 15,8 C 15,0 C 14,4 C 80 % 1020,0 hPa 0,0 l/m 0 min 0 min 0 W/m 9,7 km/h (2 Bft) 97,87 %
15.07.2019 00:30 15,8 C 14,4 C 14,4 C 80 % 1020,0 hPa 0,0 l/m 0 min 0 min 0 W/m 6,4 km/h (2 Bft) 97,87 %
15.07.2019 00:32 15,8 C 14,4 C 14,4 C 80 % 1020,0 hPa 0,0 l/m 0 min 0 min 0 W/m 6,4 km/h (2 Bft) 97,87 %
15.07.2019 00:34 15,8 C 14,4 C 14,4 C 80 % 1020,0 hPa 0,0 l/m 0 min 0 min 0 W/m 9,7 km/h (2 Bft) 95,65 %
15.07.2019 00:36 15,7 C 14,4 C 13,9 C 80 % 1020,0 hPa 0,0 l/m 0 min 0 min 0 W/m 3,2 km/h (1 Bft) 95,74 %
15.07.2019 00:38 15,7 C 14,4 C 13,3 C 80 % 1020,0 hPa 0,0 l/m 0 min 0 min 0 W/m 9,7 km/h (2 Bft) 95,74 %
15.07.2019 00:40 15,7 C 14,4 C 13,9 C 80 % 1020,0 hPa 0,0 l/m 0 min 0 min 0 W/m 6,4 km/h (2 Bft) 97,87 %
15.07.2019 00:42 15,7 C 14,4 C 13,9 C 80 % 1020,0 hPa 0,0 l/m 0 min 0 min 0 W/m 6,4 km/h (2 Bft) 97,87 %
15.07.2019 00:44 15,6 C 14,4 C 13,9 C 80 % 1020,0 hPa 0,0 l/m 0 min 0 min 0 W/m 6,4 km/h (2 Bft) 97,87 %
15.07.2019 00:46 15,6 C 14,4 C 13,9 C 80 % 1020,0 hPa 0,0 l/m 0 min 0 min 0 W/m 6,4 km/h (2 Bft) 97,83 %
15.07.2019 00:48 15,6 C 14,4 C 13,9 C 80 % 1020,0 hPa 0,0 l/m 0 min 0 min 0 W/m 6,4 km/h (2 Bft) 93,62 %
15.07.2019 00:50 15,5 C 13,9 C 13,9 C 80 % 1020,0 hPa 0,0 l/m 0 min 0 min 0 W/m 3,2 km/h (1 Bft) 97,87 %
15.07.2019 00:52 15,5 C 13,9 C 13,9 C 80 % 1020,1 hPa 0,0 l/m 0 min 0 min 0 W/m 3,2 km/h (1 Bft) 100,00 %
15.07.2019 00:54 15,4 C 13,9 C 13,9 C 80 % 1020,1 hPa 0,0 l/m 0 min 0 min 0 W/m 3,2 km/h (1 Bft) 100,00 %
15.07.2019 00:56 15,4 C 13,9 C 13,3 C 80 % 1020,0 hPa 0,0 l/m 0 min 0 min 0 W/m 3,2 km/h (1 Bft) 100,00 %
15.07.2019 00:58 15,4 C 13,9 C 12,8 C 80 % 1020,1 hPa 0,0 l/m 0 min 0 min 0 W/m 3,2 km/h (1 Bft) 100,00 %
15.07.2019 01:00 15,3 C 13,9 C 12,8 C 80 % 1020,1 hPa 0,0 l/m 0 min 0 min 0 W/m 3,2 km/h (1 Bft) 100,00 %
15.07.2019 01:02 15,3 C 13,9 C 13,3 C 80 % 1020,1 hPa 0,0 l/m 0 min 0 min 0 W/m 3,2 km/h (1 Bft) 100,00 %
15.07.2019 01:04 15,3 C 13,9 C 13,3 C 80 % 1020,1 hPa 0,0 l/m 0 min 0 min 0 W/m 3,2 km/h (1 Bft) 100,00 %
15.07.2019 01:06 15,2 C 13,9 C 13,3 C 80 % 1020,1 hPa 0,0 l/m 0 min 0 min 0 W/m 6,4 km/h (2 Bft) 100,00 %
15.07.2019 01:08 15,2 C 13,9 C 13,3 C 80 % 1020,1 hPa 0,0 l/m 0 min 0 min 0 W/m 9,7 km/h (2 Bft) 100,00 %
15.07.2019 01:10 15,1 C 13,9 C 13,3 C 80 % 1020,1 hPa 0,0 l/m 0 min 0 min 0 W/m 6,4 km/h (2 Bft) 100,00 %
15.07.2019 01:12 15,1 C 13,3 C 13,3 C 80 % 1020,0 hPa 0,0 l/m 0 min 0 min 0 W/m 6,4 km/h (2 Bft) 100,00 %
15.07.2019 01:14 15,1 C 13,3 C 13,3 C 80 % 1020,0 hPa 0,0 l/m 0 min 0 min 0 W/m 6,4 km/h (2 Bft) 100,00 %
15.07.2019 01:16 15,0 C 13,9 C 13,3 C 80 % 1020,0 hPa 0,0 l/m 0 min 0 min 0 W/m 9,7 km/h (2 Bft) 100,00 %
15.07.2019 01:18 14,9 C 13,3 C 13,3 C 80 % 1020,0 hPa 0,0 l/m 0 min 0 min 0 W/m 3,2 km/h (1 Bft) 100,00 %
15.07.2019 01:20 14,9 C 13,3 C 13,3 C 80 % 1020,0 hPa 0,0 l/m 0 min 0 min 0 W/m 3,2 km/h (1 Bft) 97,83 %
15.07.2019 01:22 14,9 C 13,3 C 13,3 C 80 % 1020,1 hPa 0,0 l/m 0 min 0 min 0 W/m 9,7 km/h (2 Bft) 100,00 %
15.07.2019 01:24 14,9 C 13,3 C 13,3 C 80 % 1020,1 hPa 0,0 l/m 0 min 0 min 0 W/m 3,2 km/h (1 Bft) 97,87 %
15.07.2019 01:26 14,8 C 13,3 C 13,3 C 81 % 1020,1 hPa 0,0 l/m 0 min 0 min 0 W/m 3,2 km/h (1 Bft) 100,00 %
15.07.2019 01:28 14,8 C 13,3 C 13,3 C 81 % 1020,1 hPa 0,0 l/m 0 min 0 min 0 W/m 3,2 km/h (1 Bft) 100,00 %
15.07.2019 01:30 14,8 C 13,3 C 12,8 C 81 % 1020,1 hPa 0,0 l/m 0 min 0 min 0 W/m 6,4 km/h (2 Bft) 95,74 %
15.07.2019 01:32 14,7 C 13,3 C 12,8 C 81 % 1020,1 hPa 0,0 l/m 0 min 0 min 0 W/m 3,2 km/h (1 Bft) 97,83 %
15.07.2019 01:34 14,7 C 12,8 C 12,8 C 81 % 1020,0 hPa 0,0 l/m 0 min 0 min 0 W/m 0,0 km/h (0 Bft) 97,87 %
15.07.2019 01:36 14,7 C 12,8 C 12,8 C 81 % 1020,1 hPa 0,0 l/m 0 min 0 min 0 W/m 0,0 km/h (0 Bft) 97,87 %
15.07.2019 01:38 14,7 C 12,8 C 12,8 C 81 % 1020,0 hPa 0,0 l/m 0 min 0 min 0 W/m 0,0 km/h (0 Bft) 97,87 %
15.07.2019 01:40 14,6 C 12,8 C 12,2 C 81 % 1020,0 hPa 0,0 l/m 0 min 0 min 0 W/m 0,0 km/h (0 Bft) 97,87 %
15.07.2019 01:42 14,6 C 12,8 C 12,2 C 81 % 1020,0 hPa 0,0 l/m 0 min 0 min 0 W/m 3,2 km/h (1 Bft) 95,74 %
15.07.2019 01:44 14,6 C 12,2 C 12,2 C 81 % 1020,1 hPa 0,0 l/m 0 min 0 min 0 W/m 0,0 km/h (0 Bft) 97,83 %
15.07.2019 01:46 14,5 C 12,2 C 12,2 C 81 % 1020,0 hPa 0,0 l/m 0 min 0 min 0 W/m 0,0 km/h (0 Bft) 95,74 %
15.07.2019 01:48 14,5 C 12,2 C 12,2 C 82 % 1020,1 hPa 0,0 l/m 0 min 0 min 0 W/m 3,2 km/h (1 Bft) 97,87 %
15.07.2019 01:50 14,4 C 12,2 C 12,2 C 82 % 1020,0 hPa 0,0 l/m 0 min 0 min 0 W/m 6,4 km/h (2 Bft) 97,87 %
15.07.2019 01:52 14,4 C 12,2 C 12,2 C 82 % 1020,0 hPa 0,0 l/m 0 min 0 min 0 W/m 3,2 km/h (1 Bft) 95,74 %
15.07.2019 01:54 14,3 C 12,2 C 12,2 C 82 % 1020,0 hPa 0,0 l/m 0 min 0 min 0 W/m 3,2 km/h (1 Bft) 95,74 %
15.07.2019 01:56 14,3 C 12,2 C 12,2 C 82 % 1020,0 hPa 0,0 l/m 0 min 0 min 0 W/m 3,2 km/h (1 Bft) 95,65 %
15.07.2019 01:58 14,2 C 12,2 C 11,7 C 82 % 1019,9 hPa 0,0 l/m 0 min 0 min 0 W/m 3,2 km/h (1 Bft) 93,62 %
15.07.2019 02:00 14,2 C 11,7 C 11,7 C 82 % 1019,9 hPa 0,0 l/m 0 min 0 min 0 W/m 3,2 km/h (1 Bft) 93,62 %
15.07.2019 02:02 14,2 C 11,7 C 11,7 C 82 % 1020,0 hPa 0,0 l/m 0 min 0 min 0 W/m 0,0 km/h (0 Bft) 95,74 %
15.07.2019 02:04 14,2 C 11,7 C 11,7 C 82 % 1020,0 hPa 0,0 l/m 0 min 0 min 0 W/m 0,0 km/h (0 Bft) 93,62 %
15.07.2019 02:06 14,2 C 11,7 C 11,7 C 83 % 1020,0 hPa 0,0 l/m 0 min 0 min 0 W/m 3,2 km/h (1 Bft) 95,65 %
15.07.2019 02:08 14,2 C 11,7 C 11,7 C 83 % 1020,0 hPa 0,0 l/m 0 min 0 min 0 W/m 3,2 km/h (1 Bft) 93,62 %
15.07.2019 02:10 14,1 C 11,7 C 11,7 C 83 % 1020,0 hPa 0,0 l/m 0 min 0 min 0 W/m 6,4 km/h (2 Bft) 95,74 %
15.07.2019 02:12 14,0 C 11,7 C 11,7 C 83 % 1020,0 hPa 0,0 l/m 0 min 0 min 0 W/m 0,0 km/h (0 Bft) 93,62 %
15.07.2019 02:14 13,9 C 11,7 C 11,7 C 83 % 1020,0 hPa 0,0 l/m 0 min 0 min 0 W/m 0,0 km/h (0 Bft) 93,62 %
15.07.2019 02:16 13,9 C 11,7 C 11,7 C 83 % 1020,0 hPa 0,0 l/m 0 min 0 min 0 W/m 3,2 km/h (1 Bft) 93,62 %
15.07.2019 02:18 13,8 C 11,7 C 11,7 C 83 % 1020,0 hPa 0,0 l/m 0 min 0 min 0 W/m 0,0 km/h (0 Bft) 95,65 %
15.07.2019 02:20 13,8 C 11,7 C 11,7 C 83 % 1020,0 hPa 0,0 l/m 0 min 0 min 0 W/m 0,0 km/h (0 Bft) 95,74 %
15.07.2019 02:22 13,8 C 11,7 C 11,7 C 84 % 1020,0 hPa 0,0 l/m 0 min 0 min 0 W/m 0,0 km/h (0 Bft) 93,62 %
15.07.2019 02:24 13,7 C 11,7 C 11,7 C 84 % 1020,0 hPa 0,0 l/m 0 min 0 min 0 W/m 0,0 km/h (0 Bft) 97,87 %
15.07.2019 02:26 13,7 C 11,7 C 11,1 C 83 % 1020,0 hPa 0,0 l/m 0 min 0 min 0 W/m 0,0 km/h (0 Bft) 97,87 %
15.07.2019 02:28 13,6 C 11,1 C 11,1 C 84 % 1020,0 hPa 0,0 l/m 0 min 0 min 0 W/m 0,0 km/h (0 Bft) 95,74 %
15.07.2019 02:30 13,6 C 11,1 C 11,1 C 84 % 1020,0 hPa 0,0 l/m 0 min 0 min 0 W/m 0,0 km/h (0 Bft) 93,48 %
15.07.2019 02:32 13,6 C 11,1 C 11,1 C 84 % 1020,1 hPa 0,0 l/m 0 min 0 min 0 W/m 0,0 km/h (0 Bft) 95,74 %
15.07.2019 02:34 13,5 C 11,1 C 11,1 C 84 % 1020,0 hPa 0,0 l/m 0 min 0 min 0 W/m 0,0 km/h (0 Bft) 97,87 %
15.07.2019 02:36 13,4 C 11,1 C 11,1 C 84 % 1020,0 hPa 0,0 l/m 0 min 0 min 0 W/m 0,0 km/h (0 Bft) 97,87 %
15.07.2019 02:38 13,4 C 11,1 C 11,1 C 84 % 1020,0 hPa 0,0 l/m 0 min 0 min 0 W/m 0,0 km/h (0 Bft) 93,62 %
15.07.2019 02:40 13,4 C 11,1 C 11,1 C 84 % 1020,0 hPa 0,0 l/m 0 min 0 min 0 W/m 0,0 km/h (0 Bft) 95,74 %
15.07.2019 02:42 13,3 C 11,1 C 11,1 C 84 % 1020,0 hPa 0,0 l/m 0 min 0 min 0 W/m 0,0 km/h (0 Bft) 91,30 %
15.07.2019 02:44 13,3 C 11,1 C 11,1 C 84 % 1020,0 hPa 0,0 l/m 0 min 0 min 0 W/m 0,0 km/h (0 Bft) 95,74 %
15.07.2019 02:46 13,2 C 11,1 C 10,6 C 84 % 1020,0 hPa 0,0 l/m 0 min 0 min 0 W/m 0,0 km/h (0 Bft) 91,49 %
15.07.2019 02:48 13,2 C 10,6 C 10,6 C 84 % 1020,0 hPa 0,0 l/m 0 min 0 min 0 W/m 0,0 km/h (0 Bft) 95,74 %
15.07.2019 02:50 13,2 C 10,6 C 10,6 C 84 % 1020,0 hPa 0,0 l/m 0 min 0 min 0 W/m 0,0 km/h (0 Bft) 93,62 %
15.07.2019 02:52 13,1 C 10,6 C 10,6 C 85 % 1020,0 hPa 0,0 l/m 0 min 0 min 0 W/m 0,0 km/h (0 Bft) 93,62 %
15.07.2019 02:54 13,1 C 10,6 C 10,6 C 85 % 1019,9 hPa 0,0 l/m 0 min 0 min 0 W/m 0,0 km/h (0 Bft) 95,65 %
15.07.2019 02:56 13,0 C 10,6 C 10,6 C 85 % 1020,0 hPa 0,0 l/m 0 min 0 min 0 W/m 0,0 km/h (0 Bft) 95,74 %
15.07.2019 02:58 13,0 C 10,6 C 10,6 C 85 % 1020,0 hPa 0,0 l/m 0 min 0 min 0 W/m 0,0 km/h (0 Bft) 95,74 %
15.07.2019 03:00 12,9 C 10,6 C 10,6 C 85 % 1020,0 hPa 0,0 l/m 0 min 0 min 0 W/m 0,0 km/h (0 Bft) 93,62 %
15.07.2019 03:02 12,9 C 10,6 C 10,6 C 85 % 1020,0 hPa 0,0 l/m 0 min 0 min 0 W/m 0,0 km/h (0 Bft) 95,74 %
15.07.2019 03:04 12,9 C 10,6 C 10,6 C 85 % 1019,9 hPa 0,0 l/m 0 min 0 min 0 W/m 0,0 km/h (0 Bft) 95,65 %
15.07.2019 03:06 12,8 C 10,6 C 10,6 C 85 % 1019,9 hPa 0,0 l/m 0 min 0 min 0 W/m 0,0 km/h (0 Bft) 95,74 %
15.07.2019 03:08 12,8 C 10,6 C 10,6 C 85 % 1019,9 hPa 0,0 l/m 0 min 0 min 0 W/m 0,0 km/h (0 Bft) 95,74 %
15.07.2019 03:10 12,7 C 10,6 C 10,6 C 85 % 1019,9 hPa 0,0 l/m 0 min 0 min 0 W/m 0,0 km/h (0 Bft) 95,74 %
15.07.2019 03:12 12,7 C 10,6 C 10,6 C 85 % 1019,8 hPa 0,0 l/m 0 min 0 min 0 W/m 0,0 km/h (0 Bft) 95,74 %
15.07.2019 03:14 12,7 C 10,6 C 10,6 C 85 % 1019,9 hPa 0,0 l/m 0 min 0 min 0 W/m 0,0 km/h (0 Bft) 97,87 %
15.07.2019 03:16 12,6 C 10,6 C 10,6 C 85 % 1019,9 hPa 0,0 l/m 0 min 0 min 0 W/m 0,0 km/h (0 Bft) 97,83 %
15.07.2019 03:18 12,6 C 10,0 C 10,6 C 85 % 1019,9 hPa 0,0 l/m 0 min 0 min 0 W/m 0,0 km/h (0 Bft) 97,87 %
15.07.2019 03:20 12,5 C 10,0 C 10,0 C 86 % 1019,9 hPa 0,0 l/m 0 min 0 min 0 W/m 0,0 km/h (0 Bft) 100,00 %
15.07.2019 03:22 12,5 C 10,0 C 10,0 C 86 % 1019,8 hPa 0,0 l/m 0 min 0 min 0 W/m 0,0 km/h (0 Bft) 97,87 %
15.07.2019 03:24 12,4 C 10,0 C 10,0 C 86 % 1019,8 hPa 0,0 l/m 0 min 0 min 0 W/m 0,0 km/h (0 Bft) 97,87 %
15.07.2019 03:26 12,4 C 10,0 C 10,0 C 86 % 1019,9 hPa 0,0 l/m 0 min 0 min 0 W/m 0,0 km/h (0 Bft) 100,00 %
15.07.2019 03:28 12,4 C 10,0 C 10,0 C 86 % 1019,8 hPa 0,0 l/m 0 min 0 min 0 W/m 0,0 km/h (0 Bft) 100,00 %
15.07.2019 03:30 12,3 C 10,0 C 10,0 C 86 % 1019,8 hPa 0,0 l/m 0 min 0 min 0 W/m 0,0 km/h (0 Bft) 100,00 %
15.07.2019 03:32 12,3 C 10,0 C 10,0 C 86 % 1019,8 hPa 0,0 l/m 0 min 0 min 0 W/m 0,0 km/h (0 Bft) 95,74 %
15.07.2019 03:34 12,3 C 10,0 C 10,0 C 86 % 1019,8 hPa 0,0 l/m 0 min 0 min 0 W/m 0,0 km/h (0 Bft) 93,62 %
15.07.2019 03:36 12,2 C 10,0 C 10,0 C 86 % 1019,7 hPa 0,0 l/m 0 min 0 min 0 W/m 0,0 km/h (0 Bft) 100,00 %
15.07.2019 03:38 12,2 C 10,0 C 10,0 C 87 % 1019,8 hPa 0,0 l/m 0 min 0 min 0 W/m 0,0 km/h (0 Bft) 95,74 %
15.07.2019 03:40 12,2 C 10,0 C 10,0 C 87 % 1019,8 hPa 0,0 l/m 0 min 0 min 0 W/m 0,0 km/h (0 Bft) 100,00 %
15.07.2019 03:42 12,1 C 10,0 C 10,0 C 87 % 1019,7 hPa 0,0 l/m 0 min 0 min 0 W/m 0,0 km/h (0 Bft) 100,00 %
15.07.2019 03:44 12,1 C 10,0 C 10,0 C 87 % 1019,7 hPa 0,0 l/m 0 min 0 min 0 W/m 0,0 km/h (0 Bft) 100,00 %
15.07.2019 03:46 12,1 C 10,0 C 10,0 C 87 % 1019,7 hPa 0,0 l/m 0 min 0 min 0 W/m 0,0 km/h (0 Bft) 100,00 %
15.07.2019 03:48 12,0 C 10,0 C 10,0 C 87 % 1019,7 hPa 0,0 l/m 0 min 0 min 0 W/m 0,0 km/h (0 Bft) 100,00 %
15.07.2019 03:50 11,9 C 10,0 C 10,0 C 87 % 1019,7 hPa 0,0 l/m 0 min 0 min 0 W/m 0,0 km/h (0 Bft) 100,00 %
15.07.2019 03:52 11,9 C 10,0 C 10,0 C 87 % 1019,6 hPa 0,0 l/m 0 min 0 min 0 W/m 0,0 km/h (0 Bft) 97,83 %
15.07.2019 03:54 11,9 C 10,0 C 10,0 C 87 % 1019,7 hPa 0,0 l/m 0 min 0 min 0 W/m 0,0 km/h (0 Bft) 100,00 %
15.07.2019 03:56 11,8 C 10,0 C 10,0 C 87 % 1019,7 hPa 0,0 l/m 0 min 0 min 0 W/m 0,0 km/h (0 Bft) 100,00 %
15.07.2019 03:58 11,8 C 10,0 C 10,0 C 88 % 1019,6 hPa 0,0 l/m 0 min 0 min 0 W/m 0,0 km/h (0 Bft) 100,00 %
15.07.2019 04:00 11,8 C 10,0 C 10,0 C 88 % 1019,6 hPa 0,0 l/m 0 min 0 min 0 W/m 0,0 km/h (0 Bft) 100,00 %
15.07.2019 04:02 11,8 C 10,0 C 10,0 C 88 % 1019,5 hPa 0,0 l/m 0 min 0 min 0 W/m 0,0 km/h (0 Bft) 100,00 %
15.07.2019 04:04 11,7 C 10,0 C 10,0 C 88 % 1019,6 hPa 0,0 l/m 0 min 0 min 0 W/m 0,0 km/h (0 Bft) 100,00 %
15.07.2019 04:06 11,7 C 10,0 C 10,0 C 88 % 1019,5 hPa 0,0 l/m 0 min 0 min 0 W/m 0,0 km/h (0 Bft) 100,00 %
15.07.2019 04:08 11,7 C 10,0 C 10,0 C 88 % 1019,6 hPa 0,0 l/m 0 min 0 min 0 W/m 0,0 km/h (0 Bft) 100,00 %
15.07.2019 04:10 11,7 C 10,0 C 10,0 C 88 % 1019,6 hPa 0,0 l/m 0 min 0 min 0 W/m 0,0 km/h (0 Bft) 100,00 %
15.07.2019 04:12 11,6 C 10,0 C 10,0 C 88 % 1019,6 hPa 0,0 l/m 0 min 0 min 0 W/m 0,0 km/h (0 Bft) 100,00 %
15.07.2019 04:14 11,6 C 10,0 C 9,4 C 88 % 1019,6 hPa 0,0 l/m 0 min 0 min 0 W/m 0,0 km/h (0 Bft) 100,00 %
15.07.2019 04:16 11,6 C 9,4 C 9,4 C 88 % 1019,5 hPa 0,0 l/m 0 min 0 min 0 W/m 0,0 km/h (0 Bft) 97,87 %
15.07.2019 04:18 11,6 C 9,4 C 9,4 C 88 % 1019,4 hPa 0,0 l/m 0 min 0 min 0 W/m 0,0 km/h (0 Bft) 100,00 %
15.07.2019 04:20 11,5 C 9,4 C 9,4 C 88 % 1019,4 hPa 0,0 l/m 0 min 0 min 0 W/m 0,0 km/h (0 Bft) 100,00 %
15.07.2019 04:22 11,5 C 9,4 C 9,4 C 88 % 1019,4 hPa 0,0 l/m 0 min 0 min 0 W/m 0,0 km/h (0 Bft) 100,00 %
15.07.2019 04:24 11,4 C 9,4 C 9,4 C 88 % 1019,4 hPa 0,0 l/m 0 min 0 min 0 W/m 0,0 km/h (0 Bft) 100,00 %
15.07.2019 04:26 11,4 C 9,4 C 9,4 C 88 % 1019,4 hPa 0,0 l/m 0 min 0 min 0 W/m 0,0 km/h (0 Bft) 100,00 %
15.07.2019 04:28 11,4 C 9,4 C 9,4 C 89 % 1019,4 hPa 0,0 l/m 0 min 0 min 0 W/m 0,0 km/h (0 Bft) 97,87 %
15.07.2019 04:30 11,4 C 9,4 C 9,4 C 89 % 1019,4 hPa 0,0 l/m 0 min 0 min 0 W/m 0,0 km/h (0 Bft) 100,00 %
15.07.2019 04:32 11,4 C 9,4 C 9,4 C 89 % 1019,4 hPa 0,0 l/m 0 min 0 min 0 W/m 0,0 km/h (0 Bft) 95,74 %
15.07.2019 04:34 11,3 C 9,4 C 9,4 C 89 % 1019,4 hPa 0,0 l/m 0 min 0 min 0 W/m 0,0 km/h (0 Bft) 100,00 %
15.07.2019 04:36 11,3 C 9,4 C 9,4 C 89 % 1019,4 hPa 0,0 l/m 0 min 0 min 0 W/m 0,0 km/h (0 Bft) 97,87 %
15.07.2019 04:38 11,3 C 9,4 C 9,4 C 89 % 1019,4 hPa 0,0 l/m 0 min 0 min 0 W/m 0,0 km/h (0 Bft) 95,65 %
15.07.2019 04:40 11,3 C 9,4 C 9,4 C 89 % 1019,4 hPa 0,0 l/m 0 min 0 min 0 W/m 0,0 km/h (0 Bft) 97,87 %
15.07.2019 04:42 11,2 C 9,4 C 9,4 C 89 % 1019,4 hPa 0,0 l/m 0 min 0 min 0 W/m 0,0 km/h (0 Bft) 97,87 %
15.07.2019 04:44 11,2 C 9,4 C 9,4 C 89 % 1019,5 hPa 0,0 l/m 0 min 0 min 0 W/m 0,0 km/h (0 Bft) 97,87 %
15.07.2019 04:46 11,2 C 9,4 C 9,4 C 89 % 1019,4 hPa 0,0 l/m 0 min 0 min 0 W/m 0,0 km/h (0 Bft) 97,87 %
15.07.2019 04:48 11,2 C 9,4 C 9,4 C 89 % 1019,4 hPa 0,0 l/m 0 min 0 min 0 W/m 0,0 km/h (0 Bft) 97,87 %
15.07.2019 04:50 11,1 C 9,4 C 9,4 C 89 % 1019,4 hPa 0,0 l/m 0 min 0 min 0 W/m 0,0 km/h (0 Bft) 95,65 %
15.07.2019 04:52 11,1 C 9,4 C 9,4 C 89 % 1019,4 hPa 0,0 l/m 0 min 0 min 0 W/m 0,0 km/h (0 Bft) 97,87 %
15.07.2019 04:54 11,1 C 9,4 C 8,9 C 89 % 1019,4 hPa 0,0 l/m 0 min 0 min 0 W/m 0,0 km/h (0 Bft) 97,87 %
15.07.2019 04:56 11,1 C 9,4 C 8,9 C 89 % 1019,4 hPa 0,0 l/m 0 min 0 min 0 W/m 0,0 km/h (0 Bft) 95,74 %
15.07.2019 04:58 11,0 C 8,9 C 8,9 C 90 % 1019,4 hPa 0,0 l/m 0 min 0 min 0 W/m 0,0 km/h (0 Bft) 93,62 %
15.07.2019 05:00 11,0 C 9,4 C 8,9 C 90 % 1019,4 hPa 0,0 l/m 0 min 0 min 0 W/m 0,0 km/h (0 Bft) 95,74 %
15.07.2019 05:02 10,9 C 9,4 C 8,9 C 90 % 1019,4 hPa 0,0 l/m 0 min 0 min 0 W/m 0,0 km/h (0 Bft) 95,65 %
15.07.2019 05:04 10,9 C 9,4 C 8,9 C 90 % 1019,4 hPa 0,0 l/m 0 min 0 min 0 W/m 0,0 km/h (0 Bft) 95,74 %
15.07.2019 05:06 10,9 C 9,4 C 8,9 C 90 % 1019,3 hPa 0,0 l/m 0 min 0 min 0 W/m 0,0 km/h (0 Bft) 93,62 %
15.07.2019 05:08 10,9 C 9,4 C 8,9 C 90 % 1019,4 hPa 0,0 l/m 0 min 0 min 0 W/m 0,0 km/h (0 Bft) 95,74 %
15.07.2019 05:10 10,9 C 8,9 C 8,9 C 90 % 1019,4 hPa 0,0 l/m 0 min 0 min 0 W/m 0,0 km/h (0 Bft) 95,74 %
15.07.2019 05:12 10,8 C 9,4 C 8,9 C 90 % 1019,4 hPa 0,0 l/m 0 min 0 min 0 W/m 0,0 km/h (0 Bft) 93,62 %
15.07.2019 05:14 10,8 C 9,4 C 8,9 C 90 % 1019,4 hPa 0,0 l/m 0 min 0 min 0 W/m 0,0 km/h (0 Bft) 95,65 %
15.07.2019 05:16 10,8 C 8,9 C 8,9 C 90 % 1019,4 hPa 0,0 l/m 0 min 0 min 0 W/m 0,0 km/h (0 Bft) 93,62 %
15.07.2019 05:18 10,8 C 8,9 C 8,9 C 90 % 1019,3 hPa 0,0 l/m 0 min 0 min 0 W/m 0,0 km/h (0 Bft) 95,74 %
15.07.2019 05:20 10,8 C 9,4 C 8,9 C 91 % 1019,3 hPa 0,0 l/m 0 min 0 min 0 W/m 0,0 km/h (0 Bft) 95,74 %
15.07.2019 05:22 10,8 C 9,4 C 8,9 C 91 % 1019,3 hPa 0,0 l/m 0 min 0 min 0 W/m 0,0 km/h (0 Bft) 95,74 %
15.07.2019 05:24 10,8 C 9,4 C 8,9 C 91 % 1019,4 hPa 0,0 l/m 0 min 0 min 0 W/m 0,0 km/h (0 Bft) 95,65 %
15.07.2019 05:26 10,7 C 9,4 C 9,4 C 91 % 1019,4 hPa 0,0 l/m 0 min 0 min 0 W/m 0,0 km/h (0 Bft) 95,74 %
15.07.2019 05:28 10,7 C 9,4 C 9,4 C 91 % 1019,4 hPa 0,0 l/m 0 min 0 min 0 W/m 0,0 km/h (0 Bft) 97,87 %
15.07.2019 05:30 10,7 C 9,4 C 9,4 C 91 % 1019,4 hPa 0,0 l/m 0 min 0 min 0 W/m 0,0 km/h (0 Bft) 95,74 %
15.07.2019 05:32 10,7 C 9,4 C 9,4 C 91 % 1019,4 hPa 0,0 l/m 0 min 0 min 0 W/m 0,0 km/h (0 Bft) 89,36 %
15.07.2019 05:34 10,7 C 9,4 C 9,4 C 91 % 1019,4 hPa 0,0 l/m 0 min 0 min 0 W/m 0,0 km/h (0 Bft) 95,74 %
15.07.2019 05:36 10,7 C 10,0 C 9,4 C 91 % 1019,4 hPa 0,0 l/m 0 min 0 min 0 W/m 0,0 km/h (0 Bft) 95,65 %
15.07.2019 05:38 10,7 C 10,0 C 10,0 C 91 % 1019,4 hPa 0,0 l/m 0 min 0 min 0 W/m 0,0 km/h (0 Bft) 95,74 %
15.07.2019 05:40 10,7 C 10,0 C 10,0 C 91 % 1019,5 hPa 0,0 l/m 0 min 0 min 0 W/m 0,0 km/h (0 Bft) 100,00 %
15.07.2019 05:42 10,7 C 10,0 C 10,0 C 91 % 1019,4 hPa 0,0 l/m 0 min 0 min 0 W/m 0,0 km/h (0 Bft) 100,00 %
15.07.2019 05:44 10,7 C 10,0 C 10,0 C 92 % 1019,4 hPa 0,0 l/m 0 min 0 min 0 W/m 0,0 km/h (0 Bft) 100,00 %
15.07.2019 05:46 10,7 C 10,0 C 10,0 C 92 % 1019,4 hPa 0,0 l/m 0 min 0 min 0 W/m 0,0 km/h (0 Bft) 97,87 %
15.07.2019 05:48 10,7 C 10,0 C 10,0 C 92 % 1019,5 hPa 0,0 l/m 0 min 0 min 0 W/m 0,0 km/h (0 Bft) 97,83 %
15.07.2019 05:50 10,8 C 10,0 C 10,0 C 92 % 1019,5 hPa 0,0 l/m 0 min 0 min 4 W/m 0,0 km/h (0 Bft) 100,00 %
15.07.2019 05:52 10,8 C 10,0 C 10,0 C 92 % 1019,5 hPa 0,0 l/m 0 min 0 min 5 W/m 0,0 km/h (0 Bft) 97,87 %
15.07.2019 05:54 10,7 C 10,6 C 10,0 C 92 % 1019,5 hPa 0,0 l/m 0 min 0 min 5 W/m 0,0 km/h (0 Bft) 100,00 %
15.07.2019 05:56 10,8 C 10,6 C 10,6 C 92 % 1019,5 hPa 0,0 l/m 0 min 0 min 5 W/m 0,0 km/h (0 Bft) 100,00 %
15.07.2019 05:58 10,8 C 10,6 C 10,6 C 92 % 1019,5 hPa 0,0 l/m 0 min 0 min 7 W/m 0,0 km/h (0 Bft) 100,00 %
15.07.2019 06:00 10,8 C 10,6 C 10,6 C 92 % 1019,5 hPa 0,0 l/m 0 min 0 min 7 W/m 0,0 km/h (0 Bft) 100,00 %
15.07.2019 06:02 10,8 C 10,6 C 10,6 C 93 % 1019,5 hPa 0,0 l/m 0 min 0 min 7 W/m 0,0 km/h (0 Bft) 97,87 %
15.07.2019 06:04 10,8 C 10,6 C 10,6 C 93 % 1019,6 hPa 0,0 l/m 0 min 0 min 7 W/m 0,0 km/h (0 Bft) 100,00 %
15.07.2019 06:08 10,9 C 10,6 C 10,6 C 93 % 1019,5 hPa 0,0 l/m 0 min 0 min 9 W/m 0,0 km/h (0 Bft) 100,00 %
15.07.2019 06:10 10,9 C 10,6 C 10,6 C 93 % 1019,5 hPa 0,0 l/m 0 min 0 min 10 W/m 0,0 km/h (0 Bft) 100,00 %
15.07.2019 06:12 10,9 C 10,6 C 10,6 C 93 % 1019,6 hPa 0,0 l/m 0 min 0 min 11 W/m 0,0 km/h (0 Bft) 100,00 %
15.07.2019 06:14 10,9 C 10,6 C 10,6 C 93 % 1019,5 hPa 0,0 l/m 0 min 0 min 11 W/m 0,0 km/h (0 Bft) 100,00 %
15.07.2019 06:16 10,9 C 10,6 C 10,6 C 93 % 1019,6 hPa 0,0 l/m 0 min 0 min 11 W/m 0,0 km/h (0 Bft) 97,87 %
15.07.2019 06:18 11,0 C 11,1 C 10,6 C 93 % 1019,5 hPa 0,0 l/m 0 min 0 min 11 W/m 0,0 km/h (0 Bft) 97,87 %
15.07.2019 06:20 11,1 C 11,1 C 10,6 C 93 % 1019,6 hPa 0,0 l/m 0 min 0 min 12 W/m 0,0 km/h (0 Bft) 97,87 %
15.07.2019 06:22 11,1 C 11,1 C 11,1 C 93 % 1019,6 hPa 0,0 l/m 0 min 0 min 12 W/m 0,0 km/h (0 Bft) 97,83 %
15.07.2019 06:24 11,1 C 11,1 C 11,1 C 93 % 1019,7 hPa 0,0 l/m 0 min 0 min 13 W/m 0,0 km/h (0 Bft) 97,87 %
15.07.2019 06:26 11,2 C 11,1 C 11,1 C 94 % 1019,6 hPa 0,0 l/m 0 min 0 min 14 W/m 0,0 km/h (0 Bft) 95,74 %
15.07.2019 06:28 11,2 C 11,1 C 11,1 C 94 % 1019,6 hPa 0,0 l/m 0 min 0 min 14 W/m 0,0 km/h (0 Bft) 95,74 %
15.07.2019 06:30 11,2 C 11,1 C 11,1 C 94 % 1019,6 hPa 0,0 l/m 0 min 0 min 14 W/m 0,0 km/h (0 Bft) 97,87 %
15.07.2019 06:32 11,2 C 11,1 C 11,1 C 94 % 1019,6 hPa 0,0 l/m 0 min 0 min 16 W/m 0,0 km/h (0 Bft) 95,74 %
15.07.2019 06:34 11,2 C 11,1 C 11,1 C 94 % 1019,6 hPa 0,0 l/m 0 min 0 min 16 W/m 0,0 km/h (0 Bft) 97,83 %
15.07.2019 06:36 11,2 C 11,1 C 11,1 C 94 % 1019,6 hPa 0,0 l/m 0 min 0 min 17 W/m 0,0 km/h (0 Bft) 97,87 %
15.07.2019 06:38 11,3 C 11,1 C 11,1 C 94 % 1019,6 hPa 0,0 l/m 0 min 0 min 18 W/m 0,0 km/h (0 Bft) 97,87 %
15.07.2019 06:40 11,3 C 11,1 C 11,1 C 94 % 1019,7 hPa 0,0 l/m 0 min 0 min 18 W/m 0,0 km/h (0 Bft) 95,74 %
15.07.2019 06:42 11,3 C 11,7 C 11,1 C 94 % 1019,6 hPa 0,0 l/m 0 min 0 min 18 W/m 0,0 km/h (0 Bft) 97,87 %
15.07.2019 06:44 11,3 C 11,7 C 11,1 C 94 % 1019,6 hPa 0,0 l/m 0 min 0 min 19 W/m 0,0 km/h (0 Bft) 97,87 %
15.07.2019 06:46 11,4 C 11,7 C 11,1 C 94 % 1019,7 hPa 0,0 l/m 0 min 0 min 19 W/m 0,0 km/h (0 Bft) 97,83 %
15.07.2019 06:48 11,4 C 11,7 C 11,1 C 94 % 1019,7 hPa 0,0 l/m 0 min 0 min 20 W/m 0,0 km/h (0 Bft) 95,74 %
15.07.2019 06:50 11,4 C 11,7 C 11,7 C 94 % 1019,6 hPa 0,0 l/m 0 min 0 min 21 W/m 0,0 km/h (0 Bft) 97,87 %
15.07.2019 06:52 11,4 C 11,7 C 11,7 C 94 % 1019,6 hPa 0,0 l/m 0 min 0 min 21 W/m 0,0 km/h (0 Bft) 97,87 %
15.07.2019 06:54 11,5 C 11,7 C 11,7 C 94 % 1019,6 hPa 0,0 l/m 0 min 0 min 21 W/m 0,0 km/h (0 Bft) 97,87 %
15.07.2019 06:56 11,5 C 11,7 C 11,7 C 94 % 1019,7 hPa 0,0 l/m 0 min 0 min 22 W/m 0,0 km/h (0 Bft) 97,87 %
15.07.2019 06:58 11,5 C 11,7 C 11,7 C 94 % 1019,7 hPa 0,0 l/m 0 min 0 min 24 W/m 0,0 km/h (0 Bft) 97,83 %
15.07.2019 07:00 11,6 C 11,7 C 11,7 C 94 % 1019,7 hPa 0,0 l/m 0 min 0 min 25 W/m 0,0 km/h (0 Bft) 97,87 %
15.07.2019 07:02 11,6 C 11,7 C 11,7 C 95 % 1019,7 hPa 0,0 l/m 0 min 0 min 25 W/m 0,0 km/h (0 Bft) 97,87 %
15.07.2019 07:04 11,6 C 11,7 C 11,7 C 94 % 1019,8 hPa 0,0 l/m 0 min 0 min 25 W/m 0,0 km/h (0 Bft) 95,74 %
15.07.2019 07:06 11,7 C 12,2 C 11,7 C 95 % 1019,8 hPa 0,0 l/m 0 min 0 min 25 W/m 0,0 km/h (0 Bft) 93,62 %
15.07.2019 07:08 11,7 C 12,2 C 11,7 C 95 % 1019,9 hPa 0,0 l/m 0 min 0 min 25 W/m 0,0 km/h (0 Bft) 97,87 %
15.07.2019 07:10 11,7 C 12,2 C 11,7 C 95 % 1019,8 hPa 0,0 l/m 0 min 0 min 25 W/m 0,0 km/h (0 Bft) 97,83 %
15.07.2019 07:12 11,8 C 12,2 C 11,7 C 95 % 1019,8 hPa 0,0 l/m 0 min 0 min 26 W/m 0,0 km/h (0 Bft) 97,87 %
15.07.2019 07:14 11,8 C 12,2 C 12,2 C 95 % 1019,7 hPa 0,0 l/m 0 min 0 min 26 W/m 0,0 km/h (0 Bft) 95,74 %
15.07.2019 07:16 11,8 C 12,2 C 12,2 C 95 % 1019,8 hPa 0,0 l/m 0 min 0 min 28 W/m 0,0 km/h (0 Bft) 97,87 %
15.07.2019 07:18 11,9 C 12,2 C 12,2 C 95 % 1019,8 hPa 0,0 l/m 0 min 0 min 30 W/m 0,0 km/h (0 Bft) 100,00 %
15.07.2019 07:20 11,9 C 12,2 C 12,2 C 95 % 1019,8 hPa 0,0 l/m 0 min 0 min 31 W/m 0,0 km/h (0 Bft) 97,83 %
15.07.2019 07:22 11,9 C 12,2 C 12,2 C 95 % 1019,8 hPa 0,0 l/m 0 min 0 min 32 W/m 0,0 km/h (0 Bft) 97,87 %
15.07.2019 07:24 11,9 C 12,2 C 12,2 C 95 % 1019,9 hPa 0,0 l/m 0 min 0 min 32 W/m 0,0 km/h (0 Bft) 97,87 %
15.07.2019 07:26 12,0 C 12,2 C 12,2 C 95 % 1019,9 hPa 0,0 l/m 0 min 0 min 33 W/m 0,0 km/h (0 Bft) 97,87 %
15.07.2019 07:28 12,0 C 12,8 C 12,2 C 95 % 1019,8 hPa 0,0 l/m 0 min 0 min 33 W/m 0,0 km/h (0 Bft) 97,87 %
15.07.2019 07:30 12,1 C 12,8 C 12,2 C 95 % 1019,8 hPa 0,0 l/m 0 min 0 min 33 W/m 0,0 km/h (0 Bft) 97,87 %
15.07.2019 07:32 12,1 C 12,8 C 12,2 C 95 % 1019,8 hPa 0,0 l/m 0 min 0 min 34 W/m 0,0 km/h (0 Bft) 97,83 %
15.07.2019 07:34 12,1 C 12,8 C 12,2 C 95 % 1019,8 hPa 0,0 l/m 0 min 0 min 35 W/m 0,0 km/h (0 Bft) 93,62 %
15.07.2019 07:36 12,2 C 12,8 C 12,2 C 95 % 1019,8 hPa 0,0 l/m 0 min 0 min 37 W/m 0,0 km/h (0 Bft) 95,74 %
15.07.2019 07:38 12,2 C 12,8 C 12,2 C 95 % 1019,9 hPa 0,0 l/m 0 min 0 min 38 W/m 0,0 km/h (0 Bft) 95,74 %
15.07.2019 07:40 12,2 C 12,8 C 12,2 C 95 % 1019,9 hPa 0,0 l/m 0 min 0 min 39 W/m 0,0 km/h (0 Bft) 95,74 %
15.07.2019 07:42 12,3 C 12,8 C 12,2 C 95 % 1019,8 hPa 0,0 l/m 0 min 0 min 41 W/m 0,0 km/h (0 Bft) 95,74 %
15.07.2019 07:44 12,3 C 12,8 C 12,8 C 95 % 1019,8 hPa 0,0 l/m 0 min 0 min 42 W/m 0,0 km/h (0 Bft) 95,65 %
15.07.2019 07:46 12,3 C 12,8 C 12,8 C 95 % 1019,9 hPa 0,0 l/m 0 min 0 min 42 W/m 0,0 km/h (0 Bft) 95,74 %
15.07.2019 07:48 12,4 C 12,8 C 12,8 C 95 % 1019,9 hPa 0,0 l/m 0 min 0 min 41 W/m 0,0 km/h (0 Bft) 95,74 %
15.07.2019 07:50 12,4 C 12,8 C 12,8 C 95 % 1019,9 hPa 0,0 l/m 0 min 0 min 41 W/m 0,0 km/h (0 Bft) 95,74 %
15.07.2019 07:52 12,4 C 12,8 C 12,8 C 95 % 1019,8 hPa 0,0 l/m 0 min 0 min 43 W/m 0,0 km/h (0 Bft) 93,62 %
15.07.2019 07:54 12,4 C 13,3 C 12,8 C 95 % 1019,8 hPa 0,0 l/m 0 min 0 min 46 W/m 0,0 km/h (0 Bft) 95,74 %
15.07.2019 07:56 12,4 C 13,3 C 12,8 C 95 % 1019,9 hPa 0,0 l/m 0 min 0 min 47 W/m 0,0 km/h (0 Bft) 95,65 %
15.07.2019 07:58 12,5 C 13,3 C 12,8 C 95 % 1019,9 hPa 0,0 l/m 0 min 0 min 47 W/m 0,0 km/h (0 Bft) 95,74 %
15.07.2019 08:00 12,5 C 13,3 C 12,8 C 95 % 1019,9 hPa 0,0 l/m 0 min 0 min 49 W/m 0,0 km/h (0 Bft) 95,74 %
15.07.2019 08:02 12,6 C 13,3 C 12,8 C 95 % 1019,9 hPa 0,0 l/m 0 min 0 min 49 W/m 0,0 km/h (0 Bft) 95,74 %
15.07.2019 08:04 12,6 C 13,3 C 12,8 C 95 % 1019,9 hPa 0,0 l/m 0 min 0 min 52 W/m 0,0 km/h (0 Bft) 95,74 %
15.07.2019 08:06 12,6 C 13,3 C 12,8 C 95 % 1019,9 hPa 0,0 l/m 0 min 0 min 53 W/m 0,0 km/h (0 Bft) 97,87 %
15.07.2019 08:08 12,7 C 13,3 C 12,8 C 95 % 1019,9 hPa 0,0 l/m 0 min 0 min 54 W/m 0,0 km/h (0 Bft) 97,83 %
15.07.2019 08:10 12,7 C 13,3 C 12,8 C 95 % 1019,9 hPa 0,0 l/m 0 min 0 min 54 W/m 0,0 km/h (0 Bft) 97,87 %
15.07.2019 08:12 12,7 C 13,3 C 12,8 C 95 % 1019,9 hPa 0,0 l/m 0 min 0 min 54 W/m 0,0 km/h (0 Bft) 97,87 %
15.07.2019 08:14 12,8 C 13,3 C 12,8 C 95 % 1020,1 hPa 0,0 l/m 0 min 0 min 54 W/m 0,0 km/h (0 Bft) 97,87 %
15.07.2019 08:16 12,8 C 13,9 C 13,3 C 95 % 1020,1 hPa 0,0 l/m 0 min 0 min 55 W/m 0,0 km/h (0 Bft) 100,00 %
15.07.2019 08:18 12,8 C 13,9 C 13,3 C 95 % 1020,1 hPa 0,0 l/m 0 min 0 min 56 W/m 0,0 km/h (0 Bft) 100,00 %
15.07.2019 08:20 12,9 C 13,9 C 13,3 C 95 % 1020,1 hPa 0,0 l/m 0 min 0 min 56 W/m 0,0 km/h (0 Bft) 100,00 %
15.07.2019 08:22 12,9 C 13,9 C 13,3 C 95 % 1020,1 hPa 0,0 l/m 0 min 0 min 56 W/m 0,0 km/h (0 Bft) 100,00 %
15.07.2019 08:24 12,9 C 13,9 C 13,3 C 95 % 1020,1 hPa 0,0 l/m 0 min 0 min 54 W/m 0,0 km/h (0 Bft) 100,00 %
15.07.2019 08:26 12,9 C 13,9 C 13,3 C 95 % 1020,1 hPa 0,0 l/m 0 min 0 min 54 W/m 0,0 km/h (0 Bft) 97,87 %
15.07.2019 08:28 13,0 C 13,9 C 13,3 C 95 % 1020,1 hPa 0,0 l/m 0 min 0 min 58 W/m 0,0 km/h (0 Bft) 97,87 %
15.07.2019 08:30 13,0 C 13,9 C 13,3 C 95 % 1020,1 hPa 0,0 l/m 0 min 0 min 62 W/m 0,0 km/h (0 Bft) 100,00 %
15.07.2019 08:32 13,1 C 13,9 C 13,3 C 95 % 1020,1 hPa 0,0 l/m 0 min 0 min 65 W/m 0,0 km/h (0 Bft) 100,00 %
15.07.2019 08:34 13,1 C 13,9 C 13,3 C 95 % 1020,1 hPa 0,0 l/m 0 min 0 min 67 W/m 0,0 km/h (0 Bft) 100,00 %
15.07.2019 08:36 13,1 C 13,9 C 13,3 C 95 % 1020,0 hPa 0,0 l/m 0 min 0 min 67 W/m 0,0 km/h (0 Bft) 95,74 %
15.07.2019 08:38 13,2 C 13,9 C 13,3 C 95 % 1020,0 hPa 0,0 l/m 0 min 0 min 68 W/m 0,0 km/h (0 Bft) 100,00 %
15.07.2019 08:40 13,2 C 13,9 C 13,3 C 94 % 1020,0 hPa 0,0 l/m 0 min 0 min 69 W/m 6,4 km/h (2 Bft) 100,00 %
15.07.2019 08:42 13,2 C 13,9 C 13,3 C 94 % 1020,1 hPa 0,0 l/m 0 min 0 min 71 W/m 3,2 km/h (1 Bft) 97,83 %
15.07.2019 08:44 13,2 C 13,9 C 13,3 C 94 % 1020,1 hPa 0,0 l/m 0 min 0 min 75 W/m 9,7 km/h (2 Bft) 100,00 %
15.07.2019 08:46 13,3 C 13,9 C 13,9 C 94 % 1020,1 hPa 0,0 l/m 0 min 0 min 78 W/m 3,2 km/h (1 Bft) 100,00 %
15.07.2019 08:48 13,3 C 13,9 C 13,9 C 94 % 1020,0 hPa 0,0 l/m 0 min 0 min 81 W/m 6,4 km/h (2 Bft) 100,00 %
15.07.2019 08:50 13,3 C 14,4 C 13,9 C 94 % 1020,1 hPa 0,0 l/m 0 min 0 min 83 W/m 3,2 km/h (1 Bft) 97,87 %
15.07.2019 08:52 13,3 C 14,4 C 13,9 C 94 % 1020,1 hPa 0,0 l/m 0 min 0 min 86 W/m 6,4 km/h (2 Bft) 100,00 %
15.07.2019 08:54 13,4 C 14,4 C 13,9 C 94 % 1020,1 hPa 0,0 l/m 0 min 0 min 88 W/m 6,4 km/h (2 Bft) 100,00 %
15.07.2019 08:56 13,4 C 14,4 C 13,9 C 94 % 1020,2 hPa 0,0 l/m 0 min 0 min 86 W/m 3,2 km/h (1 Bft) 100,00 %
15.07.2019 08:58 13,5 C 14,4 C 13,9 C 93 % 1020,3 hPa 0,0 l/m 0 min 0 min 86 W/m 6,4 km/h (2 Bft) 100,00 %
15.07.2019 09:00 13,5 C 14,4 C 13,9 C 93 % 1020,2 hPa 0,0 l/m 0 min 0 min 87 W/m 6,4 km/h (2 Bft) 100,00 %
15.07.2019 09:02 13,6 C 14,4 C 13,9 C 93 % 1020,1 hPa 0,0 l/m 0 min 0 min 90 W/m 3,2 km/h (1 Bft) 97,87 %
15.07.2019 09:04 13,6 C 14,4 C 13,9 C 93 % 1020,2 hPa 0,0 l/m 0 min 0 min 93 W/m 3,2 km/h (1 Bft) 100,00 %
15.07.2019 09:06 13,6 C 14,4 C 13,9 C 93 % 1020,3 hPa 0,0 l/m 0 min 0 min 93 W/m 3,2 km/h (1 Bft) 100,00 %
15.07.2019 09:08 13,7 C 14,4 C 13,9 C 93 % 1020,2 hPa 0,0 l/m 0 min 0 min 91 W/m 3,2 km/h (1 Bft) 100,00 %
15.07.2019 09:10 13,7 C 14,4 C 13,9 C 93 % 1020,3 hPa 0,0 l/m 0 min 0 min 90 W/m 3,2 km/h (1 Bft) 97,92 %
15.07.2019 09:12 13,8 C 14,4 C 13,9 C 92 % 1020,3 hPa 0,0 l/m 0 min 0 min 88 W/m 6,4 km/h (2 Bft) 100,00 %
15.07.2019 09:14 13,8 C 14,4 C 13,9 C 92 % 1020,4 hPa 0,0 l/m 0 min 0 min 86 W/m 0,0 km/h (0 Bft) 100,00 %
15.07.2019 09:16 13,8 C 14,4 C 13,9 C 92 % 1020,3 hPa 0,0 l/m 0 min 0 min 84 W/m 3,2 km/h (1 Bft) 100,00 %
15.07.2019 09:18 13,9 C 14,4 C 13,9 C 92 % 1020,4 hPa 0,0 l/m 0 min 0 min 83 W/m 6,4 km/h (2 Bft) 100,00 %
15.07.2019 09:20 13,9 C 14,4 C 13,9 C 91 % 1020,4 hPa 0,0 l/m 0 min 0 min 85 W/m 6,4 km/h (2 Bft) 100,00 %
15.07.2019 09:22 13,9 C 14,4 C 13,9 C 91 % 1020,3 hPa 0,0 l/m 0 min 0 min 92 W/m 3,2 km/h (1 Bft) 97,87 %
15.07.2019 09:24 13,9 C 14,4 C 13,9 C 91 % 1020,4 hPa 0,0 l/m 0 min 0 min 101 W/m 3,2 km/h (1 Bft) 97,87 %
15.07.2019 09:26 14,0 C 14,4 C 13,9 C 91 % 1020,4 hPa 0,0 l/m 0 min 0 min 109 W/m 3,2 km/h (1 Bft) 97,87 %
15.07.2019 09:28 14,1 C 15,0 C 14,4 C 91 % 1020,4 hPa 0,0 l/m 0 min 0 min 117 W/m 3,2 km/h (1 Bft) 100,00 %
15.07.2019 09:30 14,2 C 15,0 C 14,4 C 90 % 1020,3 hPa 0,0 l/m 0 min 0 min 127 W/m 3,2 km/h (1 Bft) 100,00 %
15.07.2019 09:32 14,2 C 15,0 C 14,4 C 90 % 1020,3 hPa 0,0 l/m 0 min 0 min 141 W/m 6,4 km/h (2 Bft) 100,00 %
15.07.2019 09:34 14,2 C 15,0 C 14,4 C 90 % 1020,4 hPa 0,0 l/m 0 min 0 min 152 W/m 3,2 km/h (1 Bft) 97,87 %
15.07.2019 09:36 14,2 C 15,6 C 14,4 C 89 % 1020,3 hPa 0,0 l/m 0 min 0 min 158 W/m 3,2 km/h (1 Bft) 97,87 %
15.07.2019 09:38 14,2 C 15,6 C 15,0 C 89 % 1020,3 hPa 0,0 l/m 0 min 0 min 161 W/m 0,0 km/h (0 Bft) 97,87 %
15.07.2019 09:40 14,3 C 16,1 C 15,0 C 89 % 1020,4 hPa 0,0 l/m 0 min 0 min 163 W/m 3,2 km/h (1 Bft) 97,83 %
15.07.2019 09:42 14,3 C 16,1 C 15,0 C 89 % 1020,3 hPa 0,0 l/m 0 min 0 min 169 W/m 3,2 km/h (1 Bft) 97,87 %
15.07.2019 09:44 14,4 C 16,1 C 15,0 C 89 % 1020,4 hPa 0,0 l/m 0 min 0 min 173 W/m 0,0 km/h (0 Bft) 95,74 %
15.07.2019 09:46 14,5 C 16,1 C 15,0 C 88 % 1020,3 hPa 0,0 l/m 0 min 0 min 169 W/m 3,2 km/h (1 Bft) 97,87 %
15.07.2019 09:48 14,6 C 16,1 C 15,0 C 88 % 1020,4 hPa 0,0 l/m 0 min 0 min 162 W/m 3,2 km/h (1 Bft) 97,87 %
15.07.2019 09:50 14,7 C 16,1 C 15,0 C 87 % 1020,4 hPa 0,0 l/m 0 min 0 min 163 W/m 3,2 km/h (1 Bft) 97,87 %
15.07.2019 09:52 14,7 C 16,1 C 15,0 C 87 % 1020,3 hPa 0,0 l/m 0 min 0 min 171 W/m 0,0 km/h (0 Bft) 97,83 %
15.07.2019 09:54 14,8 C 16,1 C 15,6 C 87 % 1020,3 hPa 0,0 l/m 0 min 0 min 182 W/m 0,0 km/h (0 Bft) 97,87 %
15.07.2019 09:56 14,8 C 16,7 C 15,6 C 86 % 1020,3 hPa 0,0 l/m 0 min 0 min 193 W/m 6,4 km/h (2 Bft) 97,87 %
15.07.2019 09:58 14,9 C 16,7 C 15,6 C 86 % 1020,3 hPa 0,0 l/m 0 min 0 min 197 W/m 9,7 km/h (2 Bft) 95,74 %
15.07.2019 10:00 14,9 C 16,7 C 15,6 C 86 % 1020,2 hPa 0,0 l/m 0 min 0 min 187 W/m 6,4 km/h (2 Bft) 95,74 %
15.07.2019 10:02 14,9 C 16,1 C 15,0 C 85 % 1020,3 hPa 0,0 l/m 0 min 0 min 178 W/m 6,4 km/h (2 Bft) 93,48 %
15.07.2019 10:04 14,9 C 16,1 C 15,0 C 85 % 1020,3 hPa 0,0 l/m 0 min 0 min 173 W/m 3,2 km/h (1 Bft) 93,62 %
15.07.2019 10:06 15,0 C 16,1 C 15,0 C 84 % 1020,3 hPa 0,0 l/m 0 min 0 min 157 W/m 12,9 km/h (3 Bft) 95,74 %
15.07.2019 10:08 15,0 C 16,1 C 15,0 C 84 % 1020,2 hPa 0,0 l/m 0 min 0 min 139 W/m 3,2 km/h (1 Bft) 95,74 %
15.07.2019 10:10 15,1 C 16,1 C 15,0 C 84 % 1020,3 hPa 0,0 l/m 0 min 0 min 129 W/m 3,2 km/h (1 Bft) 91,49 %
15.07.2019 10:12 15,1 C 16,1 C 15,0 C 84 % 1020,3 hPa 0,0 l/m 0 min 0 min 125 W/m 0,0 km/h (0 Bft) 93,62 %
15.07.2019 10:14 15,2 C 15,6 C 15,0 C 84 % 1020,3 hPa 0,0 l/m 0 min 0 min 122 W/m 6,4 km/h (2 Bft) 95,65 %
15.07.2019 10:16 15,2 C 15,6 C 15,0 C 84 % 1020,3 hPa 0,0 l/m 0 min 0 min 126 W/m 12,9 km/h (3 Bft) 93,62 %
15.07.2019 10:18 15,2 C 15,6 C 15,0 C 84 % 1020,2 hPa 0,0 l/m 0 min 0 min 128 W/m 6,4 km/h (2 Bft) 93,62 %
15.07.2019 10:20 15,2 C 15,6 C 15,0 C 84 % 1020,3 hPa 0,0 l/m 0 min 0 min 131 W/m 6,4 km/h (2 Bft) 93,62 %
15.07.2019 10:22 15,2 C 15,6 C 15,0 C 84 % 1020,3 hPa 0,0 l/m 0 min 0 min 139 W/m 6,4 km/h (2 Bft) 95,74 %
15.07.2019 10:24 15,2 C 15,6 C 15,0 C 83 % 1020,3 hPa 0,0 l/m 0 min 0 min 145 W/m 6,4 km/h (2 Bft) 97,87 %
15.07.2019 10:26 15,2 C 15,6 C 15,0 C 84 % 1020,3 hPa 0,0 l/m 0 min 0 min 148 W/m 9,7 km/h (2 Bft) 97,83 %
15.07.2019 10:28 15,2 C 15,6 C 15,0 C 83 % 1020,3 hPa 0,0 l/m 0 min 0 min 144 W/m 6,4 km/h (2 Bft) 95,74 %
15.07.2019 10:30 15,2 C 16,1 C 15,0 C 83 % 1020,3 hPa 0,0 l/m 0 min 0 min 137 W/m 6,4 km/h (2 Bft) 93,62 %
15.07.2019 10:32 15,3 C 16,1 C 15,0 C 82 % 1020,4 hPa 0,0 l/m 0 min 0 min 130 W/m 3,2 km/h (1 Bft) 95,74 %
15.07.2019 10:34 15,3 C 15,6 C 15,0 C 82 % 1020,4 hPa 0,0 l/m 0 min 0 min 126 W/m 3,2 km/h (1 Bft) 95,74 %
15.07.2019 10:36 15,3 C 15,6 C 15,0 C 82 % 1020,4 hPa 0,0 l/m 0 min 0 min 120 W/m 6,4 km/h (2 Bft) 93,62 %
15.07.2019 10:38 15,3 C 15,6 C 15,0 C 82 % 1020,4 hPa 0,0 l/m 0 min 0 min 114 W/m 3,2 km/h (1 Bft) 95,65 %
15.07.2019 10:40 15,3 C 15,6 C 15,0 C 82 % 1020,4 hPa 0,0 l/m 0 min 0 min 115 W/m 6,4 km/h (2 Bft) 97,87 %
15.07.2019 10:42 15,3 C 15,6 C 15,0 C 82 % 1020,4 hPa 0,0 l/m 0 min 0 min 117 W/m 6,4 km/h (2 Bft) 97,87 %
15.07.2019 10:44 15,3 C 15,6 C 15,0 C 82 % 1020,4 hPa 0,0 l/m 0 min 0 min 115 W/m 6,4 km/h (2 Bft) 97,87 %
15.07.2019 10:46 15,3 C 15,6 C 15,0 C 82 % 1020,4 hPa 0,0 l/m 0 min 0 min 112 W/m 6,4 km/h (2 Bft) 97,87 %
15.07.2019 10:48 15,3 C 15,6 C 15,0 C 82 % 1020,5 hPa 0,0 l/m 0 min 0 min 112 W/m 6,4 km/h (2 Bft) 97,87 %
15.07.2019 10:50 15,3 C 15,6 C 15,0 C 82 % 1020,5 hPa 0,0 l/m 0 min 0 min 116 W/m 9,7 km/h (2 Bft) 97,83 %
15.07.2019 10:52 15,3 C 15,0 C 15,0 C 82 % 1020,5 hPa 0,0 l/m 0 min 0 min 118 W/m 6,4 km/h (2 Bft) 95,74 %
15.07.2019 10:54 15,2 C 15,0 C 15,0 C 82 % 1020,4 hPa 0,0 l/m 0 min 0 min 121 W/m 6,4 km/h (2 Bft) 97,87 %
15.07.2019 10:56 15,3 C 15,6 C 15,0 C 82 % 1020,4 hPa 0,0 l/m 0 min 0 min 126 W/m 3,2 km/h (1 Bft) 97,87 %
15.07.2019 10:58 15,3 C 15,6 C 15,0 C 82 % 1020,4 hPa 0,0 l/m 0 min 0 min 139 W/m 3,2 km/h (1 Bft) 97,87 %
15.07.2019 11:00 15,3 C 15,6 C 15,0 C 82 % 1020,3 hPa 0,0 l/m 0 min 0 min 157 W/m 6,4 km/h (2 Bft) 97,87 %
15.07.2019 11:02 15,3 C 16,1 C 15,0 C 82 % 1020,3 hPa 0,0 l/m 0 min 0 min 165 W/m 0,0 km/h (0 Bft) 95,65 %
15.07.2019 11:04 15,3 C 16,1 C 15,6 C 82 % 1020,4 hPa 0,0 l/m 0 min 0 min 159 W/m 6,4 km/h (2 Bft) 97,87 %
15.07.2019 11:06 15,3 C 16,1 C 15,6 C 82 % 1020,4 hPa 0,0 l/m 0 min 0 min 152 W/m 3,2 km/h (1 Bft) 97,87 %
15.07.2019 11:08 15,3 C 16,1 C 15,0 C 82 % 1020,4 hPa 0,0 l/m 0 min 0 min 151 W/m 6,4 km/h (2 Bft) 97,30 %
15.07.2019 11:10 15,3 C 15,6 C 15,0 C 82 % 1020,4 hPa 0,0 l/m 0 min 0 min 153 W/m 12,9 km/h (3 Bft) 97,87 %
15.07.2019 11:12 15,3 C 16,1 C 15,0 C 81 % 1020,5 hPa 0,0 l/m 0 min 0 min 150 W/m 6,4 km/h (2 Bft) 97,92 %
15.07.2019 11:14 15,4 C 16,1 C 15,0 C 82 % 1020,4 hPa 0,0 l/m 0 min 0 min 143 W/m 3,2 km/h (1 Bft) 95,74 %
15.07.2019 11:16 15,4 C 16,1 C 15,0 C 82 % 1020,3 hPa 0,0 l/m 0 min 0 min 133 W/m 6,4 km/h (2 Bft) 97,83 %
15.07.2019 11:18 15,4 C 16,1 C 15,0 C 82 % 1020,4 hPa 0,0 l/m 0 min 0 min 128 W/m 6,4 km/h (2 Bft) 95,74 %
15.07.2019 11:20 15,4 C 16,1 C 15,0 C 82 % 1020,4 hPa 0,0 l/m 0 min 0 min 126 W/m 9,7 km/h (2 Bft) 97,87 %
15.07.2019 11:22 15,4 C 15,6 C 15,0 C 82 % 1020,4 hPa 0,0 l/m 0 min 0 min 121 W/m 6,4 km/h (2 Bft) 97,87 %
15.07.2019 11:24 15,4 C 15,6 C 15,0 C 81 % 1020,4 hPa 0,0 l/m 0 min 0 min 113 W/m 6,4 km/h (2 Bft) 97,87 %
15.07.2019 11:26 15,4 C 15,6 C 15,0 C 81 % 1020,4 hPa 0,0 l/m 0 min 0 min 105 W/m 9,7 km/h (2 Bft) 95,74 %
15.07.2019 11:28 15,4 C 15,6 C 15,0 C 81 % 1020,4 hPa 0,0 l/m 0 min 0 min 108 W/m 6,4 km/h (2 Bft) 97,83 %
15.07.2019 11:30 15,4 C 15,0 C 15,0 C 82 % 1020,4 hPa 0,0 l/m 0 min 0 min 117 W/m 12,9 km/h (3 Bft) 95,74 %
15.07.2019 11:32 15,4 C 15,0 C 15,0 C 82 % 1020,4 hPa 0,0 l/m 0 min 0 min 125 W/m 9,7 km/h (2 Bft) 100,00 %
15.07.2019 11:34 15,3 C 15,6 C 15,0 C 82 % 1020,4 hPa 0,0 l/m 0 min 0 min 127 W/m 3,2 km/h (1 Bft) 100,00 %
15.07.2019 11:36 15,3 C 15,6 C 15,0 C 83 % 1020,3 hPa 0,0 l/m 0 min 0 min 123 W/m 6,4 km/h (2 Bft) 100,00 %
15.07.2019 11:38 15,3 C 15,6 C 15,0 C 83 % 1020,3 hPa 0,0 l/m 0 min 0 min 121 W/m 9,7 km/h (2 Bft) 100,00 %
15.07.2019 11:40 15,3 C 15,6 C 15,0 C 83 % 1020,3 hPa 0,0 l/m 0 min 0 min 122 W/m 3,2 km/h (1 Bft) 100,00 %
15.07.2019 11:42 15,3 C 15,6 C 15,0 C 83 % 1020,4 hPa 0,0 l/m 0 min 0 min 123 W/m 12,9 km/h (3 Bft) 97,87 %
15.07.2019 11:44 15,3 C 15,6 C 15,0 C 83 % 1020,3 hPa 0,0 l/m 0 min 0 min 123 W/m 16,1 km/h (3 Bft) 100,00 %
15.07.2019 11:46 15,3 C 15,6 C 15,0 C 83 % 1020,3 hPa 0,0 l/m 0 min 0 min 127 W/m 12,9 km/h (3 Bft) 100,00 %
15.07.2019 11:48 15,3 C 15,0 C 15,0 C 83 % 1020,3 hPa 0,0 l/m 0 min 0 min 130 W/m 9,7 km/h (2 Bft) 97,83 %
15.07.2019 11:50 15,3 C 15,6 C 15,0 C 83 % 1020,4 hPa 0,0 l/m 0 min 0 min 136 W/m 6,4 km/h (2 Bft) 100,00 %
15.07.2019 11:52 15,3 C 15,6 C 15,0 C 83 % 1020,3 hPa 0,0 l/m 0 min 0 min 140 W/m 6,4 km/h (2 Bft) 100,00 %
15.07.2019 11:54 15,2 C 15,6 C 15,0 C 84 % 1020,3 hPa 0,0 l/m 0 min 0 min 143 W/m 3,2 km/h (1 Bft) 100,00 %
15.07.2019 11:56 15,2 C 15,6 C 15,0 C 84 % 1020,3 hPa 0,0 l/m 0 min 0 min 145 W/m 9,7 km/h (2 Bft) 100,00 %
15.07.2019 11:58 15,2 C 15,6 C 15,0 C 84 % 1020,3 hPa 0,0 l/m 0 min 0 min 147 W/m 6,4 km/h (2 Bft) 100,00 %
15.07.2019 12:00 15,2 C 15,6 C 15,0 C 84 % 1020,3 hPa 0,0 l/m 0 min 0 min 149 W/m 6,4 km/h (2 Bft) 100,00 %
15.07.2019 12:02 15,3 C 15,6 C 15,0 C 84 % 1020,3 hPa 0,0 l/m 0 min 0 min 155 W/m 6,4 km/h (2 Bft) 97,87 %
15.07.2019 12:04 15,2 C 15,6 C 15,0 C 84 % 1020,3 hPa 0,0 l/m 0 min 0 min 162 W/m 9,7 km/h (2 Bft) 97,87 %
15.07.2019 12:08 15,3 C 16,1 C 15,6 C 84 % 1020,2 hPa 0,0 l/m 0 min 0 min 173 W/m 3,2 km/h (1 Bft) 96,81 %
15.07.2019 12:10 15,3 C 16,1 C 15,6 C 84 % 1020,2 hPa 0,0 l/m 0 min 0 min 187 W/m 0,0 km/h (0 Bft) 97,87 %
15.07.2019 12:12 15,3 C 16,7 C 15,6 C 84 % 1020,2 hPa 0,0 l/m 0 min 0 min 201 W/m 3,2 km/h (1 Bft) 97,83 %
15.07.2019 12:14 15,3 C 16,7 C 15,6 C 84 % 1020,2 hPa 0,0 l/m 0 min 0 min 218 W/m 0,0 km/h (0 Bft) 100,00 %
15.07.2019 12:16 15,3 C 15,6 C 15,6 C 83 % 1020,2 hPa 0,0 l/m 0 min 0 min 233 W/m 6,4 km/h (2 Bft) 100,00 %
15.07.2019 12:18 15,4 C 16,1 C 15,6 C 83 % 1020,2 hPa 0,0 l/m 0 min 0 min 249 W/m 6,4 km/h (2 Bft) 97,87 %
15.07.2019 12:20 15,4 C 16,1 C 15,6 C 82 % 1020,2 hPa 0,0 l/m 0 min 0 min 278 W/m 6,4 km/h (2 Bft) 100,00 %
15.07.2019 12:22 15,4 C 17,2 C 16,1 C 83 % 1020,2 hPa 0,0 l/m 0 min 0 min 306 W/m 6,4 km/h (2 Bft) 100,00 %
15.07.2019 12:24 15,5 C 17,2 C 16,7 C 83 % 1020,2 hPa 0,0 l/m 0 min 0 min 336 W/m 3,2 km/h (1 Bft) 100,00 %
15.07.2019 12:26 15,6 C 17,8 C 16,7 C 83 % 1020,1 hPa 0,0 l/m 0 min 0 min 372 W/m 6,4 km/h (2 Bft) 97,87 %
15.07.2019 12:28 15,6 C 18,3 C 17,2 C 83 % 1020,2 hPa 0,0 l/m 2 min 0 min 406 W/m 6,4 km/h (2 Bft) 95,74 %
15.07.2019 12:30 15,7 C 18,9 C 17,2 C 82 % 1020,2 hPa 0,0 l/m 2 min 0 min 406 W/m 6,4 km/h (2 Bft) 95,74 %
15.07.2019 12:32 15,7 C 18,9 C 17,8 C 82 % 1020,2 hPa 0,0 l/m 0 min 0 min 403 W/m 6,4 km/h (2 Bft) 91,49 %
15.07.2019 12:34 15,8 C 18,9 C 17,8 C 81 % 1020,2 hPa 0,0 l/m 0 min 0 min 396 W/m 6,4 km/h (2 Bft) 95,65 %
15.07.2019 12:36 15,9 C 18,9 C 17,2 C 81 % 1020,1 hPa 0,0 l/m 0 min 0 min 379 W/m 6,4 km/h (2 Bft) 95,74 %
15.07.2019 12:38 16,0 C 19,4 C 17,8 C 81 % 1020,2 hPa 0,0 l/m 0 min 0 min 353 W/m 6,4 km/h (2 Bft) 95,74 %
15.07.2019 12:40 16,1 C 19,4 C 17,8 C 81 % 1020,2 hPa 0,0 l/m 0 min 0 min 366 W/m 9,7 km/h (2 Bft) 95,74 %
15.07.2019 12:42 16,2 C 18,9 C 17,8 C 81 % 1020,2 hPa 0,0 l/m 0 min 0 min 380 W/m 6,4 km/h (2 Bft) 95,74 %
15.07.2019 12:44 16,3 C 19,4 C 18,3 C 80 % 1020,2 hPa 0,0 l/m 2 min 0 min 413 W/m 6,4 km/h (2 Bft) 95,74 %
15.07.2019 12:46 16,3 C 20,6 C 18,9 C 79 % 1020,2 hPa 0,0 l/m 2 min 0 min 519 W/m 6,4 km/h (2 Bft) 95,65 %
15.07.2019 12:48 16,4 C 21,1 C 19,4 C 79 % 1020,2 hPa 0,0 l/m 2 min 0 min 600 W/m 6,4 km/h (2 Bft) 95,74 %
15.07.2019 12:50 16,6 C 22,2 C 20,0 C 80 % 1020,2 hPa 0,0 l/m 2 min 0 min 612 W/m 6,4 km/h (2 Bft) 93,62 %
15.07.2019 12:52 16,7 C 22,2 C 20,0 C 79 % 1020,2 hPa 0,0 l/m 2 min 0 min 568 W/m 6,4 km/h (2 Bft) 95,74 %
15.07.2019 12:54 16,9 C 22,2 C 20,0 C 79 % 1020,2 hPa 0,0 l/m 2 min 0 min 525 W/m 6,4 km/h (2 Bft) 95,74 %
15.07.2019 12:56 17,1 C 21,7 C 20,0 C 79 % 1020,2 hPa 0,0 l/m 2 min 0 min 435 W/m 6,4 km/h (2 Bft) 95,74 %
15.07.2019 12:58 17,2 C 21,1 C 19,4 C 78 % 1020,3 hPa 0,0 l/m 0 min 0 min 357 W/m 9,7 km/h (2 Bft) 93,48 %
15.07.2019 13:00 17,2 C 20,6 C 18,9 C 77 % 1020,2 hPa 0,0 l/m 0 min 0 min 293 W/m 9,7 km/h (2 Bft) 95,74 %
15.07.2019 13:02 17,3 C 20,0 C 18,3 C 77 % 1020,3 hPa 0,0 l/m 0 min 0 min 246 W/m 6,4 km/h (2 Bft) 95,74 %
15.07.2019 13:04 17,4 C 18,9 C 17,8 C 77 % 1020,3 hPa 0,0 l/m 0 min 0 min 219 W/m 3,2 km/h (1 Bft) 95,74 %
15.07.2019 13:06 17,4 C 18,9 C 17,2 C 76 % 1020,3 hPa 0,0 l/m 0 min 0 min 196 W/m 6,4 km/h (2 Bft) 95,74 %
15.07.2019 13:08 17,4 C 18,3 C 17,2 C 76 % 1020,3 hPa 0,0 l/m 0 min 0 min 171 W/m 9,7 km/h (2 Bft) 95,74 %
15.07.2019 13:10 17,4 C 17,8 C 16,7 C 76 % 1020,3 hPa 0,0 l/m 0 min 0 min 152 W/m 9,7 km/h (2 Bft) 97,83 %
15.07.2019 13:12 17,4 C 17,2 C 16,7 C 76 % 1020,3 hPa 0,0 l/m 0 min 0 min 146 W/m 6,4 km/h (2 Bft) 95,74 %
15.07.2019 13:14 17,4 C 17,2 C 16,7 C 76 % 1020,3 hPa 0,0 l/m 0 min 0 min 148 W/m 6,4 km/h (2 Bft) 100,00 %
15.07.2019 13:16 17,4 C 17,2 C 16,7 C 76 % 1020,3 hPa 0,0 l/m 0 min 0 min 155 W/m 6,4 km/h (2 Bft) 95,74 %
15.07.2019 13:18 17,4 C 17,2 C 16,7 C 76 % 1020,3 hPa 0,0 l/m 0 min 0 min 163 W/m 6,4 km/h (2 Bft) 100,00 %
15.07.2019 13:20 17,3 C 17,2 C 16,7 C 76 % 1020,3 hPa 0,0 l/m 0 min 0 min 159 W/m 6,4 km/h (2 Bft) 100,00 %
15.07.2019 13:22 17,3 C 17,2 C 16,7 C 76 % 1020,3 hPa 0,0 l/m 0 min 0 min 155 W/m 3,2 km/h (1 Bft) 97,83 %
15.07.2019 13:24 17,3 C 17,2 C 16,7 C 76 % 1020,3 hPa 0,0 l/m 0 min 0 min 156 W/m 9,7 km/h (2 Bft) 100,00 %
15.07.2019 13:26 17,2 C 16,7 C 16,7 C 75 % 1020,3 hPa 0,0 l/m 0 min 0 min 172 W/m 6,4 km/h (2 Bft) 100,00 %
15.07.2019 13:28 17,2 C 17,2 C 16,7 C 76 % 1020,3 hPa 0,0 l/m 0 min 0 min 202 W/m 9,7 km/h (2 Bft) 100,00 %
15.07.2019 13:30 17,1 C 17,2 C 16,7 C 76 % 1020,2 hPa 0,0 l/m 0 min 0 min 238 W/m 9,7 km/h (2 Bft) 97,87 %
15.07.2019 13:32 17,1 C 17,8 C 16,7 C 77 % 1020,2 hPa 0,0 l/m 0 min 0 min 268 W/m 9,7 km/h (2 Bft) 100,00 %
15.07.2019 13:34 17,1 C 18,3 C 17,2 C 77 % 1020,3 hPa 0,0 l/m 0 min 0 min 286 W/m 6,4 km/h (2 Bft) 100,00 %
15.07.2019 13:36 17,2 C 18,9 C 17,2 C 77 % 1020,2 hPa 0,0 l/m 0 min 0 min 260 W/m 3,2 km/h (1 Bft) 100,00 %
15.07.2019 13:38 17,2 C 18,3 C 17,8 C 77 % 1020,2 hPa 0,0 l/m 0 min 0 min 236 W/m 6,4 km/h (2 Bft) 100,00 %
15.07.2019 13:40 17,2 C 18,3 C 17,8 C 77 % 1020,1 hPa 0,0 l/m 0 min 0 min 221 W/m 6,4 km/h (2 Bft) 97,87 %
15.07.2019 13:42 17,2 C 18,3 C 17,8 C 77 % 1020,2 hPa 0,0 l/m 0 min 0 min 202 W/m 6,4 km/h (2 Bft) 100,00 %
15.07.2019 13:44 17,2 C 18,3 C 17,2 C 77 % 1020,1 hPa 0,0 l/m 0 min 0 min 187 W/m 3,2 km/h (1 Bft) 100,00 %
15.07.2019 13:46 17,2 C 18,3 C 17,2 C 77 % 1020,1 hPa 0,0 l/m 0 min 0 min 175 W/m 3,2 km/h (1 Bft) 100,00 %
15.07.2019 13:48 17,3 C 18,3 C 17,2 C 77 % 1020,2 hPa 0,0 l/m 0 min 0 min 163 W/m 3,2 km/h (1 Bft) 100,00 %
15.07.2019 13:50 17,3 C 17,8 C 17,2 C 77 % 1020,2 hPa 0,0 l/m 0 min 0 min 158 W/m 12,9 km/h (3 Bft) 100,00 %
15.07.2019 13:52 17,2 C 17,2 C 16,7 C 76 % 1020,1 hPa 0,0 l/m 0 min 0 min 157 W/m 9,7 km/h (2 Bft) 100,00 %
15.07.2019 13:54 17,2 C 17,2 C 16,7 C 76 % 1020,1 hPa 0,0 l/m 0 min 0 min 154 W/m 6,4 km/h (2 Bft) 100,00 %
15.07.2019 13:56 17,2 C 17,2 C 16,7 C 76 % 1020,1 hPa 0,0 l/m 0 min 0 min 143 W/m 6,4 km/h (2 Bft) 100,00 %
15.07.2019 13:58 17,2 C 17,2 C 16,7 C 76 % 1020,2 hPa 0,0 l/m 0 min 0 min 137 W/m 9,7 km/h (2 Bft) 100,00 %
15.07.2019 14:00 17,1 C 17,2 C 16,7 C 76 % 1020,2 hPa 0,0 l/m 0 min 0 min 142 W/m 6,4 km/h (2 Bft) 100,00 %
15.07.2019 14:02 17,1 C 17,2 C 16,7 C 76 % 1020,2 hPa 0,0 l/m 0 min 0 min 151 W/m 6,4 km/h (2 Bft) 95,74 %
15.07.2019 14:04 17,1 C 17,2 C 16,7 C 76 % 1020,1 hPa 0,0 l/m 0 min 0 min 164 W/m 6,4 km/h (2 Bft) 100,00 %
15.07.2019 14:06 17,1 C 17,2 C 16,7 C 77 % 1020,1 hPa 0,0 l/m 0 min 0 min 188 W/m 6,4 km/h (2 Bft) 97,87 %
15.07.2019 14:08 17,1 C 17,2 C 16,7 C 77 % 1020,2 hPa 0,0 l/m 0 min 0 min 226 W/m 0,0 km/h (0 Bft) 100,00 %
15.07.2019 14:10 17,1 C 17,8 C 17,2 C 77 % 1020,1 hPa 0,0 l/m 0 min 0 min 269 W/m 3,2 km/h (1 Bft) 100,00 %
15.07.2019 14:12 17,1 C 18,3 C 17,2 C 77 % 1020,1 hPa 0,0 l/m 0 min 0 min 288 W/m 6,4 km/h (2 Bft) 97,87 %
15.07.2019 14:14 17,1 C 18,3 C 17,8 C 77 % 1020,1 hPa 0,0 l/m 0 min 0 min 287 W/m 6,4 km/h (2 Bft) 100,00 %
15.07.2019 14:16 17,1 C 18,3 C 17,8 C 76 % 1020,1 hPa 0,0 l/m 0 min 0 min 262 W/m 6,4 km/h (2 Bft) 100,00 %
15.07.2019 14:18 17,2 C 18,3 C 17,2 C 76 % 1020,1 hPa 0,0 l/m 0 min 0 min 231 W/m 3,2 km/h (1 Bft) 100,00 %
15.07.2019 14:20 17,2 C 18,3 C 17,2 C 77 % 1020,1 hPa 0,0 l/m 0 min 0 min 202 W/m 3,2 km/h (1 Bft) 95,65 %
15.07.2019 14:22 17,2 C 18,3 C 17,2 C 76 % 1020,1 hPa 0,0 l/m 0 min 0 min 172 W/m 12,9 km/h (3 Bft) 97,87 %
15.07.2019 14:24 17,2 C 17,8 C 17,2 C 76 % 1020,1 hPa 0,0 l/m 0 min 0 min 150 W/m 6,4 km/h (2 Bft) 97,87 %
15.07.2019 14:26 17,2 C 17,8 C 16,7 C 77 % 1020,1 hPa 0,0 l/m 0 min 0 min 137 W/m 9,7 km/h (2 Bft) 97,87 %
15.07.2019 14:28 17,2 C 17,2 C 16,7 C 77 % 1020,1 hPa 0,0 l/m 0 min 0 min 132 W/m 6,4 km/h (2 Bft) 97,87 %
15.07.2019 14:30 17,2 C 17,2 C 16,7 C 77 % 1020,1 hPa 0,0 l/m 0 min 0 min 127 W/m 9,7 km/h (2 Bft) 97,83 %
15.07.2019 14:32 17,2 C 17,2 C 16,7 C 77 % 1020,1 hPa 0,0 l/m 0 min 0 min 125 W/m 6,4 km/h (2 Bft) 95,74 %
15.07.2019 14:34 17,1 C 16,7 C 16,7 C 77 % 1020,1 hPa 0,0 l/m 0 min 0 min 125 W/m 12,9 km/h (3 Bft) 97,87 %
15.07.2019 14:36 17,1 C 16,7 C 16,1 C 77 % 1020,1 hPa 0,0 l/m 0 min 0 min 124 W/m 6,4 km/h (2 Bft) 97,87 %
15.07.2019 14:38 17,1 C 16,7 C 16,1 C 77 % 1020,1 hPa 0,0 l/m 0 min 0 min 119 W/m 9,7 km/h (2 Bft) 95,74 %
15.07.2019 14:40 17,0 C 16,7 C 16,1 C 77 % 1020,1 hPa 0,0 l/m 0 min 0 min 117 W/m 9,7 km/h (2 Bft) 97,87 %
15.07.2019 14:42 16,9 C 16,7 C 16,1 C 76 % 1020,1 hPa 0,0 l/m 0 min 0 min 124 W/m 6,4 km/h (2 Bft) 97,83 %
15.07.2019 14:44 16,9 C 16,7 C 16,1 C 77 % 1020,0 hPa 0,0 l/m 0 min 0 min 131 W/m 6,4 km/h (2 Bft) 95,74 %
15.07.2019 14:46 16,9 C 16,7 C 16,1 C 78 % 1020,0 hPa 0,0 l/m 0 min 0 min 144 W/m 12,9 km/h (3 Bft) 97,87 %
15.07.2019 14:48 16,9 C 17,2 C 16,1 C 77 % 1020,1 hPa 0,0 l/m 0 min 0 min 158 W/m 3,2 km/h (1 Bft) 97,87 %
15.07.2019 14:50 16,9 C 17,2 C 16,7 C 78 % 1020,0 hPa 0,0 l/m 0 min 0 min 184 W/m 9,7 km/h (2 Bft) 97,87 %
15.07.2019 14:52 16,9 C 17,2 C 16,7 C 78 % 1020,1 hPa 0,0 l/m 0 min 0 min 215 W/m 9,7 km/h (2 Bft) 95,74 %
15.07.2019 14:54 16,9 C 17,8 C 16,7 C 78 % 1020,1 hPa 0,0 l/m 0 min 0 min 223 W/m 9,7 km/h (2 Bft) 95,65 %
15.07.2019 14:56 16,9 C 17,8 C 16,7 C 79 % 1020,1 hPa 0,0 l/m 0 min 0 min 208 W/m 3,2 km/h (1 Bft) 95,74 %
15.07.2019 14:58 16,9 C 17,8 C 17,2 C 79 % 1020,1 hPa 0,0 l/m 0 min 0 min 202 W/m 9,7 km/h (2 Bft) 95,74 %
15.07.2019 15:00 17,0 C 17,8 C 17,2 C 79 % 1020,1 hPa 0,0 l/m 0 min 0 min 196 W/m 3,2 km/h (1 Bft) 95,74 %
15.07.2019 15:02 17,0 C 17,8 C 17,2 C 79 % 1020,0 hPa 0,0 l/m 0 min 0 min 191 W/m 6,4 km/h (2 Bft) 93,62 %
15.07.2019 15:04 17,1 C 18,3 C 17,2 C 79 % 1020,0 hPa 0,0 l/m 0 min 0 min 194 W/m 3,2 km/h (1 Bft) 95,74 %
15.07.2019 15:06 17,1 C 17,8 C 17,2 C 79 % 1020,0 hPa 0,0 l/m 0 min 0 min 205 W/m 9,7 km/h (2 Bft) 91,30 %
15.07.2019 15:08 17,1 C 18,3 C 17,2 C 78 % 1020,0 hPa 0,0 l/m 0 min 0 min 238 W/m 6,4 km/h (2 Bft) 93,62 %
15.07.2019 15:10 17,1 C 18,3 C 17,2 C 79 % 1020,0 hPa 0,0 l/m 0 min 0 min 264 W/m 6,4 km/h (2 Bft) 95,74 %
15.07.2019 15:12 17,1 C 18,3 C 17,8 C 79 % 1020,0 hPa 0,0 l/m 0 min 0 min 268 W/m 6,4 km/h (2 Bft) 95,74 %
15.07.2019 15:14 17,2 C 18,9 C 17,8 C 79 % 1020,0 hPa 0,0 l/m 0 min 0 min 256 W/m 3,2 km/h (1 Bft) 95,74 %
15.07.2019 15:16 17,2 C 18,9 C 17,8 C 79 % 1020,0 hPa 0,0 l/m 0 min 0 min 230 W/m 9,7 km/h (2 Bft) 95,74 %
15.07.2019 15:18 17,3 C 18,9 C 17,8 C 79 % 1020,0 hPa 0,0 l/m 0 min 0 min 221 W/m 9,7 km/h (2 Bft) 95,65 %
15.07.2019 15:20 17,3 C 18,9 C 17,8 C 79 % 1020,0 hPa 0,0 l/m 0 min 0 min 226 W/m 6,4 km/h (2 Bft) 93,62 %
15.07.2019 15:22 17,4 C 18,9 C 17,8 C 79 % 1020,0 hPa 0,0 l/m 0 min 0 min 244 W/m 6,4 km/h (2 Bft) 95,74 %
15.07.2019 15:24 17,4 C 18,9 C 17,8 C 79 % 1020,0 hPa 0,0 l/m 0 min 0 min 265 W/m 6,4 km/h (2 Bft) 95,74 %
15.07.2019 15:26 17,4 C 18,9 C 17,8 C 79 % 1020,0 hPa 0,0 l/m 0 min 0 min 281 W/m 6,4 km/h (2 Bft) 93,62 %
15.07.2019 15:28 17,5 C 19,4 C 17,8 C 79 % 1020,0 hPa 0,0 l/m 0 min 0 min 290 W/m 9,7 km/h (2 Bft) 95,74 %
15.07.2019 15:30 17,6 C 19,4 C 17,8 C 78 % 1019,9 hPa 0,0 l/m 0 min 0 min 279 W/m 6,4 km/h (2 Bft) 95,65 %
15.07.2019 15:32 17,6 C 19,4 C 18,3 C 79 % 1020,0 hPa 0,0 l/m 0 min 0 min 284 W/m 6,4 km/h (2 Bft) 95,74 %
15.07.2019 15:34 17,7 C 20,0 C 18,9 C 79 % 1020,0 hPa 0,0 l/m 0 min 0 min 314 W/m 3,2 km/h (1 Bft) 95,74 %
15.07.2019 15:36 17,8 C 20,0 C 18,9 C 80 % 1019,9 hPa 0,0 l/m 0 min 0 min 352 W/m 6,4 km/h (2 Bft) 95,74 %
15.07.2019 15:38 17,8 C 20,6 C 18,9 C 80 % 1020,0 hPa 0,0 l/m 0 min 0 min 362 W/m 6,4 km/h (2 Bft) 97,87 %
15.07.2019 15:40 17,9 C 20,6 C 18,9 C 79 % 1020,0 hPa 0,0 l/m 0 min 0 min 331 W/m 6,4 km/h (2 Bft) 97,83 %
15.07.2019 15:42 17,9 C 20,0 C 18,9 C 78 % 1019,9 hPa 0,0 l/m 0 min 0 min 266 W/m 12,9 km/h (3 Bft) 97,87 %
15.07.2019 15:44 18,0 C 20,0 C 18,3 C 77 % 1019,9 hPa 0,0 l/m 0 min 0 min 209 W/m 9,7 km/h (2 Bft) 97,87 %
15.07.2019 15:46 18,1 C 19,4 C 18,3 C 77 % 1019,9 hPa 0,0 l/m 0 min 0 min 152 W/m 12,9 km/h (3 Bft) 97,87 %
15.07.2019 15:48 18,1 C 18,9 C 17,8 C 76 % 1020,0 hPa 0,0 l/m 0 min 0 min 112 W/m 12,9 km/h (3 Bft) 95,74 %
15.07.2019 15:50 18,0 C 18,3 C 17,2 C 76 % 1020,0 hPa 0,0 l/m 0 min 0 min 100 W/m 9,7 km/h (2 Bft) 97,87 %
15.07.2019 15:52 18,0 C 17,8 C 17,2 C 76 % 1020,0 hPa 0,0 l/m 0 min 0 min 95 W/m 9,7 km/h (2 Bft) 97,83 %
15.07.2019 15:54 18,0 C 17,8 C 16,7 C 76 % 1020,0 hPa 0,0 l/m 0 min 0 min 83 W/m 9,7 km/h (2 Bft) 97,87 %
15.07.2019 15:56 17,9 C 17,2 C 16,7 C 76 % 1020,1 hPa 0,0 l/m 0 min 0 min 71 W/m 9,7 km/h (2 Bft) 95,74 %
15.07.2019 15:58 17,9 C 16,7 C 16,7 C 76 % 1020,0 hPa 0,0 l/m 0 min 0 min 62 W/m 12,9 km/h (3 Bft) 96,00 %
15.07.2019 16:00 17,8 C 16,7 C 16,1 C 75 % 1020,0 hPa 0,0 l/m 0 min 0 min 60 W/m 12,9 km/h (3 Bft) 97,87 %
15.07.2019 16:02 17,7 C 16,7 C 16,1 C 75 % 1020,0 hPa 0,0 l/m 0 min 0 min 66 W/m 6,4 km/h (2 Bft) 97,83 %
15.07.2019 16:04 17,7 C 16,7 C 16,1 C 75 % 1020,1 hPa 0,0 l/m 0 min 0 min 73 W/m 3,2 km/h (1 Bft) 95,74 %
15.07.2019 16:06 17,6 C 16,7 C 16,1 C 75 % 1020,1 hPa 0,0 l/m 0 min 0 min 82 W/m 9,7 km/h (2 Bft) 97,87 %
15.07.2019 16:08 17,6 C 16,7 C 16,1 C 76 % 1020,0 hPa 0,0 l/m 0 min 0 min 86 W/m 3,2 km/h (1 Bft) 100,00 %
15.07.2019 16:10 17,5 C 16,7 C 16,1 C 76 % 1020,1 hPa 0,0 l/m 0 min 0 min 91 W/m 6,4 km/h (2 Bft) 100,00 %
15.07.2019 16:12 17,4 C 16,7 C 16,1 C 76 % 1020,0 hPa 0,0 l/m 0 min 0 min 103 W/m 3,2 km/h (1 Bft) 97,87 %
15.07.2019 16:14 17,4 C 16,7 C 16,1 C 77 % 1020,0 hPa 0,0 l/m 0 min 0 min 117 W/m 3,2 km/h (1 Bft) 100,00 %
15.07.2019 16:16 17,4 C 16,7 C 16,7 C 76 % 1020,0 hPa 0,0 l/m 0 min 0 min 135 W/m 9,7 km/h (2 Bft) 100,00 %
15.07.2019 16:18 17,3 C 17,2 C 16,7 C 76 % 1020,0 hPa 0,0 l/m 0 min 0 min 147 W/m 6,4 km/h (2 Bft) 100,00 %
15.07.2019 16:20 17,3 C 17,2 C 16,7 C 77 % 1020,0 hPa 0,0 l/m 0 min 0 min 169 W/m 3,2 km/h (1 Bft) 97,87 %
15.07.2019 16:22 17,3 C 17,8 C 17,2 C 77 % 1020,0 hPa 0,0 l/m 0 min 0 min 185 W/m 6,4 km/h (2 Bft) 100,00 %
15.07.2019 16:24 17,3 C 17,8 C 17,2 C 77 % 1020,1 hPa 0,0 l/m 0 min 0 min 202 W/m 12,9 km/h (3 Bft) 100,00 %
15.07.2019 16:26 17,3 C 18,3 C 17,2 C 77 % 1020,1 hPa 0,0 l/m 0 min 0 min 217 W/m 6,4 km/h (2 Bft) 100,00 %
15.07.2019 16:28 17,3 C 18,3 C 17,2 C 77 % 1020,0 hPa 0,0 l/m 0 min 0 min 231 W/m 9,7 km/h (2 Bft) 100,00 %
15.07.2019 16:30 17,3 C 18,3 C 17,8 C 76 % 1020,1 hPa 0,0 l/m 0 min 0 min 236 W/m 9,7 km/h (2 Bft) 100,00 %
15.07.2019 16:32 17,3 C 18,3 C 17,8 C 76 % 1020,0 hPa 0,0 l/m 0 min 0 min 235 W/m 6,4 km/h (2 Bft) 95,74 %
15.07.2019 16:34 17,4 C 18,9 C 17,8 C 76 % 1020,0 hPa 0,0 l/m 0 min 0 min 219 W/m 3,2 km/h (1 Bft) 100,00 %
15.07.2019 16:36 17,4 C 18,9 C 17,8 C 77 % 1020,0 hPa 0,0 l/m 0 min 0 min 198 W/m 3,2 km/h (1 Bft) 97,87 %
15.07.2019 16:38 17,5 C 18,9 C 17,8 C 77 % 1020,1 hPa 0,0 l/m 0 min 0 min 182 W/m 3,2 km/h (1 Bft) 95,74 %
15.07.2019 16:40 17,5 C 18,9 C 17,8 C 77 % 1020,1 hPa 0,0 l/m 0 min 0 min 163 W/m 3,2 km/h (1 Bft) 100,00 %
15.07.2019 16:42 17,5 C 18,9 C 17,8 C 77 % 1020,1 hPa 0,0 l/m 0 min 0 min 146 W/m 6,4 km/h (2 Bft) 97,87 %
15.07.2019 16:44 17,6 C 18,3 C 17,2 C 77 % 1020,1 hPa 0,0 l/m 0 min 0 min 137 W/m 3,2 km/h (1 Bft) 97,87 %
15.07.2019 16:46 17,6 C 17,8 C 17,2 C 76 % 1020,1 hPa 0,0 l/m 0 min 0 min 133 W/m 3,2 km/h (1 Bft) 100,00 %
15.07.2019 16:48 17,6 C 17,8 C 17,2 C 75 % 1020,1 hPa 0,0 l/m 0 min 0 min 123 W/m 3,2 km/h (1 Bft) 100,00 %
15.07.2019 16:50 17,6 C 17,8 C 17,2 C 75 % 1020,1 hPa 0,0 l/m 0 min 0 min 109 W/m 6,4 km/h (2 Bft) 100,00 %
15.07.2019 16:52 17,6 C 17,8 C 16,7 C 76 % 1020,1 hPa 0,0 l/m 0 min 0 min 95 W/m 0,0 km/h (0 Bft) 100,00 %
15.07.2019 16:54 17,6 C 17,8 C 16,7 C 76 % 1020,1 hPa 0,0 l/m 0 min 0 min 83 W/m 3,2 km/h (1 Bft) 100,00 %
15.07.2019 16:56 17,6 C 17,2 C 16,7 C 77 % 1020,0 hPa 0,0 l/m 0 min 0 min 77 W/m 6,4 km/h (2 Bft) 97,87 %
15.07.2019 16:58 17,6 C 17,2 C 16,7 C 76 % 1019,9 hPa 0,0 l/m 0 min 0 min 76 W/m 3,2 km/h (1 Bft) 100,00 %
15.07.2019 17:00 17,6 C 17,2 C 16,7 C 76 % 1019,9 hPa 0,0 l/m 0 min 0 min 83 W/m 3,2 km/h (1 Bft) 97,87 %
15.07.2019 17:02 17,6 C 17,2 C 16,7 C 77 % 1019,9 hPa 0,0 l/m 0 min 0 min 91 W/m 6,4 km/h (2 Bft) 100,00 %
15.07.2019 17:04 17,6 C 17,2 C 16,7 C 77 % 1019,9 hPa 0,0 l/m 0 min 0 min 93 W/m 6,4 km/h (2 Bft) 100,00 %
15.07.2019 17:06 17,6 C 17,2 C 16,7 C 77 % 1019,9 hPa 0,0 l/m 0 min 0 min 98 W/m 6,4 km/h (2 Bft) 100,00 %
15.07.2019 17:08 17,5 C 17,2 C 16,7 C 77 % 1019,9 hPa 0,0 l/m 0 min 0 min 105 W/m 6,4 km/h (2 Bft) 100,00 %
15.07.2019 17:10 17,5 C 17,2 C 16,7 C 76 % 1019,9 hPa 0,0 l/m 0 min 0 min 116 W/m 16,1 km/h (3 Bft) 100,00 %
15.07.2019 17:12 17,4 C 17,2 C 16,7 C 77 % 1019,9 hPa 0,0 l/m 0 min 0 min 127 W/m 0,0 km/h (0 Bft) 95,74 %
15.07.2019 17:14 17,4 C 17,2 C 16,7 C 77 % 1020,0 hPa 0,0 l/m 0 min 0 min 130 W/m 3,2 km/h (1 Bft) 100,00 %
15.07.2019 17:16 17,4 C 17,2 C 16,7 C 77 % 1020,0 hPa 0,0 l/m 0 min 0 min 135 W/m 6,4 km/h (2 Bft) 100,00 %
15.07.2019 17:18 17,4 C 17,8 C 16,7 C 77 % 1019,9 hPa 0,0 l/m 0 min 0 min 139 W/m 6,4 km/h (2 Bft) 100,00 %
15.07.2019 17:20 17,4 C 17,8 C 16,7 C 77 % 1019,9 hPa 0,0 l/m 0 min 0 min 137 W/m 6,4 km/h (2 Bft) 97,87 %
15.07.2019 17:22 17,4 C 17,8 C 17,2 C 76 % 1019,9 hPa 0,0 l/m 0 min 0 min 138 W/m 12,9 km/h (3 Bft) 100,00 %
15.07.2019 17:24 17,4 C 17,8 C 17,2 C 77 % 1019,9 hPa 0,0 l/m 0 min 0 min 150 W/m 3,2 km/h (1 Bft) 97,87 %
15.07.2019 17:26 17,4 C 17,8 C 16,7 C 76 % 1019,9 hPa 0,0 l/m 0 min 0 min 160 W/m 9,7 km/h (2 Bft) 97,83 %
15.07.2019 17:28 17,4 C 17,8 C 16,7 C 76 % 1019,9 hPa 0,0 l/m 0 min 0 min 156 W/m 9,7 km/h (2 Bft) 97,87 %
15.07.2019 17:30 17,4 C 17,8 C 17,2 C 75 % 1020,0 hPa 0,0 l/m 0 min 0 min 177 W/m 6,4 km/h (2 Bft) 97,87 %
15.07.2019 17:32 17,4 C 18,3 C 17,2 C 75 % 1019,8 hPa 0,0 l/m 0 min 0 min 225 W/m 9,7 km/h (2 Bft) 97,87 %
15.07.2019 17:34 17,4 C 18,3 C 17,8 C 76 % 1019,8 hPa 0,0 l/m 0 min 0 min 270 W/m 9,7 km/h (2 Bft) 95,74 %
15.07.2019 17:36 17,5 C 19,4 C 18,3 C 76 % 1019,8 hPa 0,0 l/m 2 min 0 min 353 W/m 9,7 km/h (2 Bft) 95,74 %
15.07.2019 17:38 17,6 C 19,4 C 18,3 C 75 % 1019,7 hPa 0,0 l/m 2 min 0 min 631 W/m 6,4 km/h (2 Bft) 95,65 %
15.07.2019 17:40 17,7 C 20,0 C 18,9 C 76 % 1019,7 hPa 0,0 l/m 2 min 0 min 486 W/m 3,2 km/h (1 Bft) 97,87 %
15.07.2019 17:42 17,8 C 20,6 C 18,9 C 76 % 1019,7 hPa 0,0 l/m 0 min 0 min 260 W/m 9,7 km/h (2 Bft) 95,74 %
15.07.2019 17:44 17,9 C 20,0 C 18,9 C 76 % 1019,7 hPa 0,0 l/m 0 min 0 min 225 W/m 3,2 km/h (1 Bft) 93,62 %
15.07.2019 17:46 18,1 C 19,4 C 18,3 C 74 % 1019,6 hPa 0,0 l/m 0 min 0 min 195 W/m 12,9 km/h (3 Bft) 95,74 %
15.07.2019 17:48 18,1 C 19,4 C 18,3 C 73 % 1019,7 hPa 0,0 l/m 0 min 0 min 177 W/m 6,4 km/h (2 Bft) 97,87 %
15.07.2019 17:50 18,1 C 18,9 C 18,3 C 73 % 1019,7 hPa 0,0 l/m 0 min 0 min 162 W/m 6,4 km/h (2 Bft) 97,83 %
15.07.2019 17:52 18,2 C 18,9 C 17,8 C 74 % 1019,6 hPa 0,0 l/m 0 min 0 min 150 W/m 6,4 km/h (2 Bft) 97,87 %
15.07.2019 17:54 18,2 C 18,9 C 17,8 C 74 % 1019,7 hPa 0,0 l/m 0 min 0 min 141 W/m 3,2 km/h (1 Bft) 95,74 %
15.07.2019 17:56 18,2 C 18,9 C 17,8 C 73 % 1019,6 hPa 0,0 l/m 0 min 0 min 140 W/m 12,9 km/h (3 Bft) 95,74 %
15.07.2019 17:58 18,2 C 18,3 C 17,8 C 73 % 1019,8 hPa 0,0 l/m 0 min 0 min 131 W/m 9,7 km/h (2 Bft) 97,87 %
15.07.2019 18:00 18,2 C 18,3 C 17,2 C 73 % 1019,7 hPa 0,0 l/m 0 min 0 min 121 W/m 9,7 km/h (2 Bft) 93,62 %
15.07.2019 18:02 18,2 C 18,3 C 17,2 C 73 % 1019,7 hPa 0,0 l/m 0 min 0 min 116 W/m 9,7 km/h (2 Bft) 93,48 %
15.07.2019 18:04 18,2 C 18,3 C 17,2 C 73 % 1019,7 hPa 0,0 l/m 0 min 0 min 112 W/m 6,4 km/h (2 Bft) 95,74 %
15.07.2019 18:08 18,2 C 17,8 C 17,2 C 72 % 1019,6 hPa 0,0 l/m 0 min 0 min 108 W/m 12,9 km/h (3 Bft) 95,74 %
15.07.2019 18:10 18,1 C 17,8 C 17,2 C 72 % 1019,6 hPa 0,0 l/m 0 min 0 min 105 W/m 12,9 km/h (3 Bft) 97,87 %
15.07.2019 18:12 18,1 C 17,8 C 17,2 C 72 % 1019,6 hPa 0,0 l/m 0 min 0 min 110 W/m 6,4 km/h (2 Bft) 95,65 %
15.07.2019 18:14 18,1 C 17,8 C 17,2 C 72 % 1019,6 hPa 0,0 l/m 0 min 0 min 122 W/m 6,4 km/h (2 Bft) 95,74 %
15.07.2019 18:16 18,1 C 17,8 C 17,2 C 72 % 1019,6 hPa 0,0 l/m 0 min 0 min 136 W/m 6,4 km/h (2 Bft) 95,74 %
15.07.2019 18:18 18,1 C 18,3 C 17,2 C 73 % 1019,6 hPa 0,0 l/m 0 min 0 min 148 W/m 6,4 km/h (2 Bft) 95,74 %
15.07.2019 18:20 18,1 C 18,3 C 17,2 C 72 % 1019,6 hPa 0,0 l/m 0 min 0 min 156 W/m 6,4 km/h (2 Bft) 95,74 %
15.07.2019 18:22 18,1 C 18,3 C 17,2 C 73 % 1019,6 hPa 0,0 l/m 0 min 0 min 168 W/m 12,9 km/h (3 Bft) 95,74 %
15.07.2019 18:24 18,1 C 18,3 C 17,8 C 72 % 1019,6 hPa 0,0 l/m 0 min 0 min 174 W/m 9,7 km/h (2 Bft) 95,65 %
15.07.2019 18:26 18,1 C 18,9 C 17,8 C 72 % 1019,6 hPa 0,0 l/m 0 min 0 min 179 W/m 6,4 km/h (2 Bft) 95,74 %
15.07.2019 18:28 18,1 C 18,9 C 17,8 C 72 % 1019,5 hPa 0,0 l/m 0 min 0 min 178 W/m 6,4 km/h (2 Bft) 95,74 %
15.07.2019 18:30 18,1 C 18,9 C 17,8 C 72 % 1019,5 hPa 0,0 l/m 0 min 0 min 169 W/m 3,2 km/h (1 Bft) 95,74 %
15.07.2019 18:32 18,1 C 18,9 C 17,8 C 72 % 1019,5 hPa 0,0 l/m 0 min 0 min 148 W/m 9,7 km/h (2 Bft) 95,74 %
15.07.2019 18:34 18,1 C 18,9 C 17,8 C 72 % 1019,5 hPa 0,0 l/m 0 min 0 min 133 W/m 3,2 km/h (1 Bft) 93,62 %
15.07.2019 18:36 18,1 C 18,9 C 17,8 C 72 % 1019,6 hPa 0,0 l/m 0 min 0 min 130 W/m 6,4 km/h (2 Bft) 95,65 %
15.07.2019 18:38 18,1 C 18,3 C 17,8 C 71 % 1019,6 hPa 0,0 l/m 0 min 0 min 123 W/m 3,2 km/h (1 Bft) 95,74 %
15.07.2019 18:40 18,1 C 18,3 C 17,8 C 71 % 1019,7 hPa 0,0 l/m 0 min 0 min 116 W/m 3,2 km/h (1 Bft) 95,74 %
15.07.2019 18:42 18,1 C 18,3 C 17,2 C 71 % 1019,6 hPa 0,0 l/m 0 min 0 min 104 W/m 3,2 km/h (1 Bft) 95,74 %
15.07.2019 18:44 18,2 C 18,3 C 17,2 C 72 % 1019,6 hPa 0,0 l/m 0 min 0 min 95 W/m 3,2 km/h (1 Bft) 95,74 %
15.07.2019 18:46 18,1 C 17,8 C 17,2 C 71 % 1019,6 hPa 0,0 l/m 0 min 0 min 87 W/m 6,4 km/h (2 Bft) 93,62 %
15.07.2019 18:48 18,1 C 17,8 C 17,2 C 71 % 1019,5 hPa 0,0 l/m 0 min 0 min 87 W/m 6,4 km/h (2 Bft) 93,48 %
15.07.2019 18:50 18,1 C 17,8 C 17,2 C 71 % 1019,5 hPa 0,0 l/m 0 min 0 min 91 W/m 6,4 km/h (2 Bft) 95,74 %
15.07.2019 18:52 18,1 C 17,8 C 17,2 C 71 % 1019,5 hPa 0,0 l/m 0 min 0 min 86 W/m 6,4 km/h (2 Bft) 95,74 %
15.07.2019 18:54 18,1 C 17,8 C 17,2 C 72 % 1019,5 hPa 0,0 l/m 0 min 0 min 78 W/m 3,2 km/h (1 Bft) 95,74 %
15.07.2019 18:56 18,1 C 17,8 C 17,2 C 71 % 1019,6 hPa 0,0 l/m 0 min 0 min 82 W/m 6,4 km/h (2 Bft) 93,62 %
15.07.2019 18:58 18,1 C 17,8 C 17,2 C 71 % 1019,5 hPa 0,0 l/m 0 min 0 min 92 W/m 6,4 km/h (2 Bft) 95,74 %
15.07.2019 19:00 18,0 C 17,8 C 17,2 C 71 % 1019,5 hPa 0,0 l/m 0 min 0 min 104 W/m 6,4 km/h (2 Bft) 95,65 %
15.07.2019 19:02 18,0 C 17,8 C 17,2 C 70 % 1019,5 hPa 0,0 l/m 0 min 0 min 110 W/m 6,4 km/h (2 Bft) 97,87 %
15.07.2019 19:04 18,0 C 17,8 C 17,2 C 71 % 1019,5 hPa 0,0 l/m 0 min 0 min 125 W/m 9,7 km/h (2 Bft) 97,87 %
15.07.2019 19:06 18,0 C 17,8 C 17,2 C 71 % 1019,4 hPa 0,0 l/m 0 min 0 min 149 W/m 6,4 km/h (2 Bft) 95,74 %
15.07.2019 19:08 18,0 C 18,3 C 17,2 C 71 % 1019,3 hPa 0,0 l/m 0 min 0 min 162 W/m 3,2 km/h (1 Bft) 97,87 %
15.07.2019 19:10 18,0 C 18,3 C 17,2 C 71 % 1019,3 hPa 0,0 l/m 0 min 0 min 163 W/m 3,2 km/h (1 Bft) 97,83 %
15.07.2019 19:12 18,1 C 18,3 C 17,2 C 72 % 1019,3 hPa 0,0 l/m 0 min 0 min 168 W/m 0,0 km/h (0 Bft) 100,00 %
15.07.2019 19:14 18,1 C 18,3 C 17,8 C 71 % 1019,3 hPa 0,0 l/m 2 min 0 min 193 W/m 6,4 km/h (2 Bft) 100,00 %
15.07.2019 19:16 18,1 C 18,9 C 17,8 C 71 % 1019,3 hPa 0,0 l/m 2 min 0 min 175 W/m 0,0 km/h (0 Bft) 97,87 %
15.07.2019 19:18 18,1 C 18,9 C 17,8 C 71 % 1019,3 hPa 0,0 l/m 0 min 0 min 151 W/m 0,0 km/h (0 Bft) 100,00 %
15.07.2019 19:20 18,1 C 18,9 C 17,8 C 72 % 1019,3 hPa 0,0 l/m 0 min 0 min 149 W/m 3,2 km/h (1 Bft) 100,00 %
15.07.2019 19:22 18,2 C 18,3 C 17,2 C 71 % 1019,3 hPa 0,0 l/m 0 min 0 min 151 W/m 6,4 km/h (2 Bft) 97,83 %
15.07.2019 19:24 18,2 C 18,3 C 17,2 C 70 % 1019,2 hPa 0,0 l/m 0 min 0 min 131 W/m 3,2 km/h (1 Bft) 97,87 %
15.07.2019 19:26 18,2 C 18,3 C 17,2 C 70 % 1019,2 hPa 0,0 l/m 0 min 0 min 111 W/m 3,2 km/h (1 Bft) 100,00 %
15.07.2019 19:28 18,2 C 17,8 C 17,2 C 69 % 1019,2 hPa 0,0 l/m 0 min 0 min 115 W/m 3,2 km/h (1 Bft) 100,00 %
15.07.2019 19:30 18,2 C 17,8 C 16,7 C 69 % 1019,2 hPa 0,0 l/m 0 min 0 min 83 W/m 9,7 km/h (2 Bft) 100,00 %
15.07.2019 19:32 18,2 C 17,8 C 16,7 C 69 % 1019,2 hPa 0,0 l/m 0 min 0 min 96 W/m 6,4 km/h (2 Bft) 100,00 %
15.07.2019 19:34 18,2 C 17,8 C 16,7 C 69 % 1019,2 hPa 0,0 l/m 0 min 0 min 111 W/m 6,4 km/h (2 Bft) 100,00 %
15.07.2019 19:36 18,2 C 17,8 C 17,2 C 69 % 1019,2 hPa 0,0 l/m 0 min 0 min 114 W/m 3,2 km/h (1 Bft) 97,87 %
15.07.2019 19:38 18,1 C 17,8 C 17,2 C 69 % 1019,3 hPa 0,0 l/m 0 min 0 min 113 W/m 3,2 km/h (1 Bft) 100,00 %
15.07.2019 19:40 18,2 C 17,8 C 17,2 C 69 % 1019,3 hPa 0,0 l/m 0 min 0 min 111 W/m 3,2 km/h (1 Bft) 100,00 %
15.07.2019 19:42 18,2 C 17,8 C 17,2 C 69 % 1019,3 hPa 0,0 l/m 0 min 0 min 105 W/m 3,2 km/h (1 Bft) 100,00 %
15.07.2019 19:44 18,2 C 17,8 C 17,2 C 69 % 1019,3 hPa 0,0 l/m 0 min 0 min 100 W/m 3,2 km/h (1 Bft) 100,00 %
15.07.2019 19:46 18,2 C 17,8 C 17,2 C 71 % 1019,3 hPa 0,0 l/m 0 min 0 min 98 W/m 0,0 km/h (0 Bft) 100,00 %
15.07.2019 19:48 18,2 C 17,8 C 16,7 C 71 % 1019,3 hPa 0,0 l/m 0 min 0 min 89 W/m 0,0 km/h (0 Bft) 100,00 %
15.07.2019 19:50 18,2 C 17,8 C 16,7 C 71 % 1019,3 hPa 0,0 l/m 0 min 0 min 69 W/m 0,0 km/h (0 Bft) 100,00 %
15.07.2019 19:52 18,2 C 17,8 C 16,7 C 70 % 1019,3 hPa 0,0 l/m 0 min 0 min 55 W/m 0,0 km/h (0 Bft) 97,87 %
15.07.2019 19:53 18,2 C 17,2 C 16,7 C 71 % 1019,2 hPa 0,0 l/m 0 min 0 min 52 W/m 0,0 km/h (0 Bft) 95,74 %
15.07.2019 19:56 18,1 C 17,2 C 16,7 C 71 % 1019,2 hPa 0,0 l/m 0 min 0 min 54 W/m 0,0 km/h (0 Bft) 97,83 %
15.07.2019 19:58 18,1 C 17,2 C 16,7 C 71 % 1019,2 hPa 0,0 l/m 0 min 0 min 52 W/m 0,0 km/h (0 Bft) 97,87 %
15.07.2019 20:00 18,1 C 17,2 C 16,7 C 71 % 1019,2 hPa 0,0 l/m 0 min 0 min 48 W/m 0,0 km/h (0 Bft) 95,74 %
15.07.2019 20:02 18,1 C 17,2 C 16,7 C 70 % 1019,1 hPa 0,0 l/m 0 min 0 min 53 W/m 3,2 km/h (1 Bft) 97,87 %
15.07.2019 20:04 18,1 C 17,2 C 16,7 C 70 % 1019,2 hPa 0,0 l/m 0 min 0 min 51 W/m 6,4 km/h (2 Bft) 97,87 %
15.07.2019 20:06 18,1 C 17,2 C 16,7 C 71 % 1019,2 hPa 0,0 l/m 0 min 0 min 43 W/m 3,2 km/h (1 Bft) 97,83 %
15.07.2019 20:08 18,0 C 17,2 C 16,7 C 71 % 1019,2 hPa 0,0 l/m 0 min 0 min 38 W/m 0,0 km/h (0 Bft) 97,87 %
15.07.2019 20:10 18,0 C 17,2 C 16,7 C 70 % 1019,2 hPa 0,0 l/m 0 min 0 min 33 W/m 3,2 km/h (1 Bft) 97,87 %
15.07.2019 20:12 18,0 C 17,2 C 16,1 C 70 % 1019,2 hPa 0,0 l/m 0 min 0 min 29 W/m 6,4 km/h (2 Bft) 97,87 %
15.07.2019 20:14 17,9 C 16,7 C 16,1 C 70 % 1019,2 hPa 0,0 l/m 0 min 0 min 26 W/m 3,2 km/h (1 Bft) 97,87 %
15.07.2019 20:16 17,9 C 16,7 C 16,1 C 70 % 1019,1 hPa 0,0 l/m 0 min 0 min 27 W/m 3,2 km/h (1 Bft) 95,74 %
15.07.2019 20:18 17,9 C 16,7 C 16,1 C 70 % 1019,1 hPa 0,0 l/m 0 min 0 min 26 W/m 3,2 km/h (1 Bft) 95,74 %
15.07.2019 20:20 17,9 C 16,7 C 16,1 C 70 % 1019,1 hPa 0,0 l/m 0 min 0 min 28 W/m 3,2 km/h (1 Bft) 97,83 %
15.07.2019 20:22 17,9 C 16,7 C 16,1 C 70 % 1019,2 hPa 0,0 l/m 0 min 0 min 26 W/m 0,0 km/h (0 Bft) 97,87 %
15.07.2019 20:24 17,9 C 16,7 C 16,1 C 70 % 1019,1 hPa 0,0 l/m 0 min 0 min 22 W/m 0,0 km/h (0 Bft) 97,87 %
15.07.2019 20:26 17,8 C 16,7 C 16,1 C 70 % 1019,1 hPa 0,0 l/m 0 min 0 min 22 W/m 0,0 km/h (0 Bft) 97,87 %
15.07.2019 20:28 17,8 C 16,7 C 16,1 C 70 % 1019,1 hPa 0,0 l/m 0 min 0 min 23 W/m 6,4 km/h (2 Bft) 95,74 %
15.07.2019 20:30 17,8 C 16,7 C 16,1 C 70 % 1019,1 hPa 0,0 l/m 0 min 0 min 25 W/m 3,2 km/h (1 Bft) 97,83 %
15.07.2019 20:32 17,8 C 16,7 C 16,1 C 70 % 1019,2 hPa 0,0 l/m 0 min 0 min 28 W/m 6,4 km/h (2 Bft) 95,74 %
15.07.2019 20:34 17,8 C 16,7 C 16,1 C 70 % 1019,2 hPa 0,0 l/m 0 min 0 min 28 W/m 3,2 km/h (1 Bft) 97,87 %
15.07.2019 20:36 17,7 C 16,7 C 16,1 C 71 % 1019,2 hPa 0,0 l/m 0 min 0 min 26 W/m 0,0 km/h (0 Bft) 95,74 %
15.07.2019 20:38 17,7 C 16,7 C 16,1 C 71 % 1019,2 hPa 0,0 l/m 0 min 0 min 28 W/m 3,2 km/h (1 Bft) 100,00 %
15.07.2019 20:40 17,7 C 16,7 C 16,1 C 71 % 1019,2 hPa 0,0 l/m 0 min 0 min 31 W/m 3,2 km/h (1 Bft) 100,00 %
15.07.2019 20:42 17,7 C 16,7 C 16,1 C 71 % 1019,1 hPa 0,0 l/m 0 min 0 min 29 W/m 0,0 km/h (0 Bft) 100,00 %
15.07.2019 20:44 17,7 C 16,7 C 16,1 C 71 % 1019,2 hPa 0,0 l/m 0 min 0 min 29 W/m 0,0 km/h (0 Bft) 95,74 %
15.07.2019 20:46 17,7 C 16,7 C 16,1 C 72 % 1019,2 hPa 0,0 l/m 0 min 0 min 27 W/m 0,0 km/h (0 Bft) 97,87 %
15.07.2019 20:48 17,6 C 16,7 C 16,1 C 72 % 1019,2 hPa 0,0 l/m 0 min 0 min 27 W/m 0,0 km/h (0 Bft) 100,00 %
15.07.2019 20:50 17,6 C 16,7 C 15,6 C 72 % 1019,2 hPa 0,0 l/m 0 min 0 min 27 W/m 0,0 km/h (0 Bft) 100,00 %
15.07.2019 20:52 17,6 C 16,1 C 15,6 C 72 % 1019,2 hPa 0,0 l/m 0 min 0 min 26 W/m 0,0 km/h (0 Bft) 97,87 %
15.07.2019 20:54 17,6 C 16,1 C 15,6 C 72 % 1019,1 hPa 0,0 l/m 0 min 0 min 27 W/m 0,0 km/h (0 Bft) 97,83 %
15.07.2019 20:56 17,6 C 16,1 C 15,6 C 72 % 1019,1 hPa 0,0 l/m 0 min 0 min 28 W/m 0,0 km/h (0 Bft) 100,00 %
15.07.2019 20:58 17,6 C 16,1 C 15,6 C 72 % 1019,1 hPa 0,0 l/m 0 min 0 min 27 W/m 3,2 km/h (1 Bft) 97,87 %
15.07.2019 21:00 17,5 C 16,1 C 15,6 C 72 % 1019,1 hPa 0,0 l/m 0 min 0 min 25 W/m 3,2 km/h (1 Bft) 97,87 %
15.07.2019 21:02 17,5 C 16,1 C 15,6 C 72 % 1019,1 hPa 0,0 l/m 0 min 0 min 24 W/m 0,0 km/h (0 Bft) 95,74 %
15.07.2019 21:04 17,5 C 16,1 C 15,6 C 72 % 1019,1 hPa 0,0 l/m 0 min 0 min 21 W/m 0,0 km/h (0 Bft) 100,00 %
15.07.2019 21:06 17,4 C 16,1 C 15,6 C 72 % 1019,1 hPa 0,0 l/m 0 min 0 min 19 W/m 0,0 km/h (0 Bft) 97,87 %
15.07.2019 21:08 17,4 C 16,1 C 15,6 C 72 % 1019,1 hPa 0,0 l/m 0 min 0 min 18 W/m 0,0 km/h (0 Bft) 97,87 %
15.07.2019 21:10 17,4 C 16,1 C 15,6 C 72 % 1019,1 hPa 0,0 l/m 0 min 0 min 16 W/m 0,0 km/h (0 Bft) 97,87 %
15.07.2019 21:12 17,4 C 16,1 C 15,6 C 72 % 1019,1 hPa 0,0 l/m 0 min 0 min 13 W/m 0,0 km/h (0 Bft) 100,00 %
15.07.2019 21:14 17,4 C 16,1 C 15,0 C 72 % 1019,1 hPa 0,0 l/m 0 min 0 min 12 W/m 0,0 km/h (0 Bft) 100,00 %
15.07.2019 21:16 17,4 C 16,1 C 15,0 C 72 % 1019,1 hPa 0,0 l/m 0 min 0 min 12 W/m 3,2 km/h (1 Bft) 97,83 %
15.07.2019 21:18 17,4 C 16,1 C 15,0 C 72 % 1019,2 hPa 0,0 l/m 0 min 0 min 11 W/m 3,2 km/h (1 Bft) 97,87 %
15.07.2019 21:20 17,3 C 15,6 C 15,0 C 72 % 1019,1 hPa 0,0 l/m 0 min 0 min 10 W/m 0,0 km/h (0 Bft) 93,62 %
15.07.2019 21:22 17,3 C 15,6 C 15,0 C 72 % 1019,2 hPa 0,0 l/m 0 min 0 min 9 W/m 0,0 km/h (0 Bft) 97,87 %
15.07.2019 21:24 17,3 C 15,6 C 15,0 C 73 % 1019,2 hPa 0,0 l/m 0 min 0 min 9 W/m 3,2 km/h (1 Bft) 97,87 %
15.07.2019 21:26 17,2 C 15,6 C 15,0 C 73 % 1019,2 hPa 0,0 l/m 0 min 0 min 8 W/m 0,0 km/h (0 Bft) 97,87 %
15.07.2019 21:28 17,2 C 15,6 C 15,0 C 73 % 1019,1 hPa 0,0 l/m 0 min 0 min 7 W/m 3,2 km/h (1 Bft) 97,83 %
15.07.2019 21:30 17,2 C 15,6 C 15,0 C 73 % 1019,2 hPa 0,0 l/m 0 min 0 min 6 W/m 0,0 km/h (0 Bft) 95,74 %
15.07.2019 21:32 17,2 C 15,6 C 15,0 C 73 % 1019,2 hPa 0,0 l/m 0 min 0 min 5 W/m 3,2 km/h (1 Bft) 91,49 %
15.07.2019 21:34 17,2 C 15,6 C 15,0 C 73 % 1019,2 hPa 0,0 l/m 0 min 0 min 5 W/m 3,2 km/h (1 Bft) 95,74 %
15.07.2019 21:36 17,1 C 15,6 C 15,0 C 73 % 1019,3 hPa 0,0 l/m 0 min 0 min 0 W/m 0,0 km/h (0 Bft) 95,74 %
15.07.2019 21:38 17,1 C 15,6 C 15,0 C 73 % 1019,3 hPa 0,0 l/m 0 min 0 min 0 W/m 0,0 km/h (0 Bft) 95,74 %
15.07.2019 21:40 17,1 C 15,6 C 15,0 C 73 % 1019,3 hPa 0,0 l/m 0 min 0 min 0 W/m 0,0 km/h (0 Bft) 95,65 %
15.07.2019 21:42 17,1 C 15,6 C 15,0 C 73 % 1019,3 hPa 0,0 l/m 0 min 0 min 0 W/m 0,0 km/h (0 Bft) 95,74 %
15.07.2019 21:44 17,1 C 15,6 C 15,0 C 74 % 1019,3 hPa 0,0 l/m 0 min 0 min 0 W/m 0,0 km/h (0 Bft) 95,74 %
15.07.2019 21:46 17,0 C 15,6 C 15,0 C 74 % 1019,3 hPa 0,0 l/m 0 min 0 min 0 W/m 3,2 km/h (1 Bft) 95,74 %
15.07.2019 21:48 17,0 C 15,6 C 15,0 C 74 % 1019,2 hPa 0,0 l/m 0 min 0 min 0 W/m 3,2 km/h (1 Bft) 95,74 %
15.07.2019 21:50 16,9 C 15,6 C 15,0 C 74 % 1019,3 hPa 0,0 l/m 0 min 0 min 0 W/m 0,0 km/h (0 Bft) 95,74 %
15.07.2019 21:52 16,9 C 15,6 C 15,0 C 74 % 1019,3 hPa 0,0 l/m 0 min 0 min 0 W/m 3,2 km/h (1 Bft) 95,65 %
15.07.2019 21:54 16,9 C 15,6 C 15,0 C 74 % 1019,3 hPa 0,0 l/m 0 min 0 min 0 W/m 3,2 km/h (1 Bft) 95,74 %
15.07.2019 21:56 16,9 C 15,6 C 15,0 C 75 % 1019,3 hPa 0,0 l/m 0 min 0 min 0 W/m 3,2 km/h (1 Bft) 95,74 %
15.07.2019 21:58 16,9 C 15,6 C 15,0 C 75 % 1019,2 hPa 0,0 l/m 0 min 0 min 0 W/m 3,2 km/h (1 Bft) 95,74 %
15.07.2019 22:00 16,8 C 15,6 C 15,0 C 75 % 1019,3 hPa 0,0 l/m 0 min 0 min 0 W/m 0,0 km/h (0 Bft) 95,74 %
15.07.2019 22:02 16,8 C 15,6 C 15,0 C 75 % 1019,3 hPa 0,0 l/m 0 min 0 min 0 W/m 0,0 km/h (0 Bft) 95,65 %
15.07.2019 22:04 16,8 C 15,6 C 15,0 C 75 % 1019,2 hPa 0,0 l/m 0 min 0 min 0 W/m 3,2 km/h (1 Bft) 93,62 %
15.07.2019 22:06 16,8 C 15,6 C 15,0 C 75 % 1019,2 hPa 0,0 l/m 0 min 0 min 0 W/m 3,2 km/h (1 Bft) 95,74 %
15.07.2019 22:08 16,7 C 15,0 C 15,0 C 75 % 1019,3 hPa 0,0 l/m 0 min 0 min 0 W/m 0,0 km/h (0 Bft) 97,87 %
15.07.2019 22:10 16,7 C 15,0 C 15,0 C 76 % 1019,3 hPa 0,0 l/m 0 min 0 min 0 W/m 3,2 km/h (1 Bft) 95,74 %
15.07.2019 22:12 16,7 C 15,0 C 15,0 C 76 % 1019,3 hPa 0,0 l/m 0 min 0 min 0 W/m 0,0 km/h (0 Bft) 97,87 %
15.07.2019 22:14 16,7 C 15,0 C 15,0 C 76 % 1019,4 hPa 0,0 l/m 0 min 0 min 0 W/m 3,2 km/h (1 Bft) 97,83 %
15.07.2019 22:16 16,6 C 15,0 C 14,4 C 76 % 1019,3 hPa 0,0 l/m 0 min 0 min 0 W/m 0,0 km/h (0 Bft) 97,87 %
15.07.2019 22:18 16,6 C 15,0 C 14,4 C 77 % 1019,3 hPa 0,0 l/m 0 min 0 min 0 W/m 3,2 km/h (1 Bft) 97,87 %
15.07.2019 22:20 16,6 C 15,0 C 14,4 C 77 % 1019,3 hPa 0,0 l/m 0 min 0 min 0 W/m 0,0 km/h (0 Bft) 93,62 %
15.07.2019 22:22 16,6 C 15,0 C 14,4 C 77 % 1019,3 hPa 0,0 l/m 0 min 0 min 0 W/m 3,2 km/h (1 Bft) 97,87 %
15.07.2019 22:24 16,5 C 15,0 C 14,4 C 77 % 1019,4 hPa 0,0 l/m 0 min 0 min 0 W/m 0,0 km/h (0 Bft) 97,87 %
15.07.2019 22:26 16,5 C 15,0 C 14,4 C 77 % 1019,4 hPa 0,0 l/m 0 min 0 min 0 W/m 0,0 km/h (0 Bft) 97,83 %
15.07.2019 22:28 16,5 C 15,0 C 14,4 C 77 % 1019,4 hPa 0,0 l/m 0 min 0 min 0 W/m 3,2 km/h (1 Bft) 97,87 %
15.07.2019 22:30 16,4 C 15,0 C 14,4 C 77 % 1019,3 hPa 0,0 l/m 0 min 0 min 0 W/m 6,4 km/h (2 Bft) 100,00 %
15.07.2019 22:32 16,4 C 15,0 C 14,4 C 77 % 1019,3 hPa 0,0 l/m 0 min 0 min 0 W/m 0,0 km/h (0 Bft) 100,00 %
15.07.2019 22:34 16,4 C 15,0 C 14,4 C 77 % 1019,3 hPa 0,0 l/m 0 min 0 min 0 W/m 3,2 km/h (1 Bft) 100,00 %
15.07.2019 22:36 16,4 C 14,4 C 14,4 C 77 % 1019,3 hPa 0,0 l/m 0 min 0 min 0 W/m 3,2 km/h (1 Bft) 100,00 %
15.07.2019 22:38 16,3 C 14,4 C 14,4 C 78 % 1019,3 hPa 0,0 l/m 0 min 0 min 0 W/m 3,2 km/h (1 Bft) 100,00 %
15.07.2019 22:40 16,3 C 14,4 C 14,4 C 78 % 1019,3 hPa 0,0 l/m 0 min 0 min 0 W/m 3,2 km/h (1 Bft) 95,74 %
15.07.2019 22:42 16,3 C 14,4 C 13,9 C 78 % 1019,3 hPa 0,0 l/m 0 min 0 min 0 W/m 9,7 km/h (2 Bft) 97,87 %
15.07.2019 22:44 16,3 C 14,4 C 13,9 C 79 % 1019,3 hPa 0,0 l/m 0 min 0 min 0 W/m 0,0 km/h (0 Bft) 95,74 %
15.07.2019 22:46 16,2 C 14,4 C 13,9 C 79 % 1019,3 hPa 0,0 l/m 0 min 0 min 0 W/m 0,0 km/h (0 Bft) 97,87 %
15.07.2019 22:48 16,2 C 14,4 C 13,9 C 79 % 1019,3 hPa 0,0 l/m 0 min 0 min 0 W/m 0,0 km/h (0 Bft) 95,74 %
15.07.2019 22:50 16,2 C 14,4 C 13,9 C 79 % 1019,3 hPa 0,0 l/m 0 min 0 min 0 W/m 0,0 km/h (0 Bft) 97,83 %
15.07.2019 22:52 16,2 C 13,9 C 13,9 C 79 % 1019,3 hPa 0,0 l/m 0 min 0 min 0 W/m 0,0 km/h (0 Bft) 97,87 %
15.07.2019 22:54 16,1 C 13,9 C 13,9 C 79 % 1019,2 hPa 0,0 l/m 0 min 0 min 0 W/m 0,0 km/h (0 Bft) 95,74 %
15.07.2019 22:56 16,1 C 13,9 C 13,9 C 79 % 1019,3 hPa 0,0 l/m 0 min 0 min 0 W/m 0,0 km/h (0 Bft) 97,87 %
15.07.2019 22:58 16,1 C 13,9 C 13,9 C 80 % 1019,3 hPa 0,0 l/m 0 min 0 min 0 W/m 0,0 km/h (0 Bft) 97,87 %
15.07.2019 23:00 16,0 C 13,9 C 13,9 C 80 % 1019,3 hPa 0,0 l/m 0 min 0 min 0 W/m 0,0 km/h (0 Bft) 97,87 %
15.07.2019 23:02 15,9 C 13,9 C 13,9 C 80 % 1019,3 hPa 0,0 l/m 0 min 0 min 0 W/m 3,2 km/h (1 Bft) 97,83 %
15.07.2019 23:04 15,9 C 13,9 C 13,9 C 80 % 1019,4 hPa 0,0 l/m 0 min 0 min 0 W/m 0,0 km/h (0 Bft) 97,87 %
15.07.2019 23:06 15,9 C 13,9 C 13,9 C 80 % 1019,4 hPa 0,0 l/m 0 min 0 min 0 W/m 0,0 km/h (0 Bft) 97,87 %
15.07.2019 23:08 15,9 C 13,9 C 13,3 C 81 % 1019,4 hPa 0,0 l/m 0 min 0 min 0 W/m 0,0 km/h (0 Bft) 97,87 %
15.07.2019 23:10 15,8 C 13,9 C 13,3 C 81 % 1019,3 hPa 0,0 l/m 0 min 0 min 0 W/m 0,0 km/h (0 Bft) 97,87 %
15.07.2019 23:12 15,8 C 13,9 C 13,3 C 81 % 1019,3 hPa 0,0 l/m 0 min 0 min 0 W/m 0,0 km/h (0 Bft) 93,48 %
15.07.2019 23:14 15,7 C 13,9 C 13,3 C 81 % 1019,4 hPa 0,0 l/m 0 min 0 min 0 W/m 0,0 km/h (0 Bft) 97,87 %
15.07.2019 23:16 15,7 C 13,9 C 13,3 C 81 % 1019,4 hPa 0,0 l/m 0 min 0 min 0 W/m 0,0 km/h (0 Bft) 97,87 %
15.07.2019 23:18 15,7 C 13,9 C 13,3 C 81 % 1019,4 hPa 0,0 l/m 0 min 0 min 0 W/m 3,2 km/h (1 Bft) 97,87 %
15.07.2019 23:20 15,7 C 13,9 C 13,3 C 81 % 1019,4 hPa 0,0 l/m 0 min 0 min 0 W/m 0,0 km/h (0 Bft) 97,87 %
15.07.2019 23:22 15,6 C 13,9 C 13,3 C 82 % 1019,4 hPa 0,0 l/m 0 min 0 min 0 W/m 0,0 km/h (0 Bft) 97,87 %
15.07.2019 23:24 15,6 C 13,9 C 13,3 C 82 % 1019,5 hPa 0,0 l/m 0 min 0 min 0 W/m 6,4 km/h (2 Bft) 97,83 %
15.07.2019 23:26 15,6 C 13,9 C 13,3 C 83 % 1019,4 hPa 0,0 l/m 0 min 0 min 0 W/m 6,4 km/h (2 Bft) 97,87 %
15.07.2019 23:28 15,5 C 13,9 C 13,9 C 83 % 1019,4 hPa 0,0 l/m 0 min 0 min 0 W/m 3,2 km/h (1 Bft) 95,74 %
15.07.2019 23:30 15,4 C 13,9 C 13,9 C 83 % 1019,4 hPa 0,0 l/m 0 min 0 min 0 W/m 3,2 km/h (1 Bft) 100,00 %
15.07.2019 23:32 15,4 C 13,9 C 13,9 C 83 % 1019,4 hPa 0,0 l/m 0 min 0 min 0 W/m 3,2 km/h (1 Bft) 100,00 %
15.07.2019 23:34 15,4 C 13,9 C 13,9 C 83 % 1019,5 hPa 0,0 l/m 0 min 0 min 0 W/m 3,2 km/h (1 Bft) 97,87 %
15.07.2019 23:36 15,3 C 13,9 C 13,9 C 83 % 1019,5 hPa 0,0 l/m 0 min 0 min 0 W/m 3,2 km/h (1 Bft) 100,00 %
15.07.2019 23:38 15,3 C 13,9 C 13,9 C 83 % 1019,4 hPa 0,0 l/m 0 min 0 min 0 W/m 0,0 km/h (0 Bft) 100,00 %
15.07.2019 23:40 15,2 C 13,9 C 13,9 C 83 % 1019,5 hPa 0,0 l/m 0 min 0 min 0 W/m 3,2 km/h (1 Bft) 97,87 %
15.07.2019 23:42 15,2 C 13,9 C 13,3 C 83 % 1019,5 hPa 0,0 l/m 0 min 0 min 0 W/m 0,0 km/h (0 Bft) 97,87 %
15.07.2019 23:44 15,2 C 13,9 C 13,3 C 83 % 1019,5 hPa 0,0 l/m 0 min 0 min 0 W/m 3,2 km/h (1 Bft) 100,00 %
15.07.2019 23:46 15,2 C 13,3 C 13,3 C 83 % 1019,5 hPa 0,0 l/m 0 min 0 min 0 W/m 3,2 km/h (1 Bft) 93,62 %
15.07.2019 23:48 15,2 C 13,3 C 13,3 C 83 % 1019,5 hPa 0,0 l/m 0 min 0 min 0 W/m 9,7 km/h (2 Bft) 97,83 %
15.07.2019 23:50 15,1 C 13,3 C 13,3 C 83 % 1019,5 hPa 0,0 l/m 0 min 0 min 0 W/m 6,4 km/h (2 Bft) 100,00 %
15.07.2019 23:52 15,1 C 13,3 C 13,3 C 83 % 1019,5 hPa 0,0 l/m 0 min 0 min 0 W/m 3,2 km/h (1 Bft) 100,00 %
15.07.2019 23:54 15,0 C 13,3 C 12,8 C 83 % 1019,6 hPa 0,0 l/m 0 min 0 min 0 W/m 3,2 km/h (1 Bft) 93,62 %
15.07.2019 23:56 14,9 C 13,3 C 12,8 C 83 % 1019,5 hPa 0,0 l/m 0 min 0 min 0 W/m 3,2 km/h (1 Bft) 100,00 %
15.07.2019 23:58 14,9 C 12,8 C 12,8 C 83 % 1019,5 hPa 0,0 l/m 0 min 0 min 0 W/m 3,2 km/h (1 Bft) 100,00 %
_ Min-Zeit 05:26 04:58 04:54 19:28 20:02 - - - - 01:34 05:32
Minimum _ 10,7 C 8,9 C 8,9 C 69 % 1019,1 hPa - - - - 0,0 km/h (0 Bft) 89,36 %
_ Max-Zeit 17:52 12:50 12:50 07:02 10:48 00:00 12:28 00:00 17:38 00:10 00:00
Maximum _ 18,2 C 22,2 C 20,0 C 95 % 1020,5 hPa 0,0 l/m 2 min 0 min 631 W/m 16,1 km/h
W-NW (3 Bft)
100,00 %
Durchschnitt _ 15,2 C 14,9 C 14,4 C 82 % 1019,8 hPa #0,0 l/m #28 min. #0 min. 130 W/m 3,7 km/h (1 Bft) 97,49 %
© 2019 W. Hausmann